<?xml version='1.0' encoding='UTF-8'?><gpx version="1.1" creator="JPX - https://github.com/jenetics/jpx" xmlns="http://www.topografix.com/GPX/1/1"><trk><trkseg><trkpt lat="44.5316028" lon="10.8885064"><ele>117.0</ele><time>2026-03-22T10:25:31.226Z</time></trkpt><trkpt lat="44.5315491" lon="10.888586"><ele>117.0</ele><time>2026-03-22T10:26:12.293Z</time></trkpt><trkpt lat="44.5315594" lon="10.8887257"><ele>117.0</ele><time>2026-03-22T10:26:14.284Z</time></trkpt><trkpt lat="44.5315932" lon="10.8888761"><ele>117.0</ele><time>2026-03-22T10:26:16.275Z</time></trkpt><trkpt lat="44.5316216" lon="10.8889651"><ele>117.0</ele><time>2026-03-22T10:26:17.287Z</time></trkpt><trkpt lat="44.5316385" lon="10.8890594"><ele>117.0</ele><time>2026-03-22T10:26:18.287Z</time></trkpt><trkpt lat="44.5316349" lon="10.8891607"><ele>117.0</ele><time>2026-03-22T10:26:19.284Z</time></trkpt><trkpt lat="44.5316185" lon="10.8892663"><ele>116.99999999999999</ele><time>2026-03-22T10:26:20.289Z</time></trkpt><trkpt lat="44.5315866" lon="10.8893849"><ele>116.99999999999999</ele><time>2026-03-22T10:26:21.279Z</time></trkpt><trkpt lat="44.5315467" lon="10.8895261"><ele>117.0</ele><time>2026-03-22T10:26:22.286Z</time></trkpt><trkpt lat="44.531502" lon="10.8896928"><ele>117.0</ele><time>2026-03-22T10:26:23.285Z</time></trkpt><trkpt lat="44.5314511" lon="10.8898707"><ele>117.0</ele><time>2026-03-22T10:26:24.275Z</time></trkpt><trkpt lat="44.5313959" lon="10.890059"><ele>117.0</ele><time>2026-03-22T10:26:25.273Z</time></trkpt><trkpt lat="44.5313355" lon="10.8902597"><ele>117.0</ele><time>2026-03-22T10:26:26.282Z</time></trkpt><trkpt lat="44.5312713" lon="10.8904664"><ele>117.66666666666666</ele><time>2026-03-22T10:26:27.278Z</time></trkpt><trkpt lat="44.5312034" lon="10.8906835"><ele>118.33333333333333</ele><time>2026-03-22T10:26:28.292Z</time></trkpt><trkpt lat="44.5311324" lon="10.8909056"><ele>119.0</ele><time>2026-03-22T10:26:29.289Z</time></trkpt><trkpt lat="44.5310619" lon="10.8911317"><ele>119.0</ele><time>2026-03-22T10:26:30.28Z</time></trkpt><trkpt lat="44.5309902" lon="10.8913577"><ele>119.0</ele><time>2026-03-22T10:26:31.286Z</time></trkpt><trkpt lat="44.5309178" lon="10.8915879"><ele>119.0</ele><time>2026-03-22T10:26:32.286Z</time></trkpt><trkpt lat="44.530846" lon="10.8918229"><ele>119.0</ele><time>2026-03-22T10:26:33.284Z</time></trkpt><trkpt lat="44.5307729" lon="10.8920604"><ele>119.0</ele><time>2026-03-22T10:26:34.296Z</time></trkpt><trkpt lat="44.5306992" lon="10.8923005"><ele>119.0</ele><time>2026-03-22T10:26:35.285Z</time></trkpt><trkpt lat="44.5306234" lon="10.8925441"><ele>119.0</ele><time>2026-03-22T10:26:36.275Z</time></trkpt><trkpt lat="44.5305442" lon="10.8927922"><ele>119.0</ele><time>2026-03-22T10:26:37.275Z</time></trkpt><trkpt lat="44.5304638" lon="10.8930467"><ele>119.0</ele><time>2026-03-22T10:26:38.289Z</time></trkpt><trkpt lat="44.5303812" lon="10.8933038"><ele>120.0</ele><time>2026-03-22T10:26:39.29Z</time></trkpt><trkpt lat="44.5302974" lon="10.8935624"><ele>121.0</ele><time>2026-03-22T10:26:40.289Z</time></trkpt><trkpt lat="44.5302152" lon="10.8938229"><ele>122.0</ele><time>2026-03-22T10:26:41.292Z</time></trkpt><trkpt lat="44.5301353" lon="10.8940861"><ele>122.0</ele><time>2026-03-22T10:26:42.291Z</time></trkpt><trkpt lat="44.5300583" lon="10.8943514"><ele>122.0</ele><time>2026-03-22T10:26:43.293Z</time></trkpt><trkpt lat="44.5299844" lon="10.8946208"><ele>122.0</ele><time>2026-03-22T10:26:44.295Z</time></trkpt><trkpt lat="44.5299153" lon="10.8948934"><ele>122.0</ele><time>2026-03-22T10:26:45.278Z</time></trkpt><trkpt lat="44.5298482" lon="10.8951675"><ele>122.0</ele><time>2026-03-22T10:26:46.284Z</time></trkpt><trkpt lat="44.5297799" lon="10.8954409"><ele>122.0</ele><time>2026-03-22T10:26:47.293Z</time></trkpt><trkpt lat="44.529711" lon="10.8957046"><ele>122.33333333333333</ele><time>2026-03-22T10:26:48.289Z</time></trkpt><trkpt lat="44.5296464" lon="10.8959521"><ele>122.66666666666666</ele><time>2026-03-22T10:26:49.295Z</time></trkpt><trkpt lat="44.5295884" lon="10.8961872"><ele>123.0</ele><time>2026-03-22T10:26:50.29Z</time></trkpt><trkpt lat="44.5295371" lon="10.8964204"><ele>123.0</ele><time>2026-03-22T10:26:51.277Z</time></trkpt><trkpt lat="44.5294919" lon="10.8966589"><ele>123.0</ele><time>2026-03-22T10:26:52.283Z</time></trkpt><trkpt lat="44.5294518" lon="10.8968962"><ele>123.0</ele><time>2026-03-22T10:26:53.289Z</time></trkpt><trkpt lat="44.5294197" lon="10.8971188"><ele>122.25</ele><time>2026-03-22T10:26:54.271Z</time></trkpt><trkpt lat="44.5293952" lon="10.8973216"><ele>121.5</ele><time>2026-03-22T10:26:55.29Z</time></trkpt><trkpt lat="44.5293746" lon="10.8974952"><ele>120.75</ele><time>2026-03-22T10:26:56.283Z</time></trkpt><trkpt lat="44.5293498" lon="10.8976379"><ele>120.0</ele><time>2026-03-22T10:26:57.283Z</time></trkpt><trkpt lat="44.5293098" lon="10.8977612"><ele>119.8</ele><time>2026-03-22T10:26:58.268Z</time></trkpt><trkpt lat="44.5292554" lon="10.897873"><ele>119.6</ele><time>2026-03-22T10:26:59.279Z</time></trkpt><trkpt lat="44.5291838" lon="10.8979661"><ele>119.4</ele><time>2026-03-22T10:27:00.277Z</time></trkpt><trkpt lat="44.5290934" lon="10.8980276"><ele>119.2</ele><time>2026-03-22T10:27:01.273Z</time></trkpt><trkpt lat="44.5289833" lon="10.898053"><ele>119.0</ele><time>2026-03-22T10:27:02.287Z</time></trkpt><trkpt lat="44.5288546" lon="10.8980477"><ele>119.0</ele><time>2026-03-22T10:27:03.278Z</time></trkpt><trkpt lat="44.5287109" lon="10.8980299"><ele>119.0</ele><time>2026-03-22T10:27:04.287Z</time></trkpt><trkpt lat="44.5285593" lon="10.8980049"><ele>119.0</ele><time>2026-03-22T10:27:05.273Z</time></trkpt><trkpt lat="44.5284011" lon="10.8979704"><ele>119.0</ele><time>2026-03-22T10:27:06.273Z</time></trkpt><trkpt lat="44.5282344" lon="10.8979235"><ele>119.0</ele><time>2026-03-22T10:27:07.276Z</time></trkpt><trkpt lat="44.5280653" lon="10.8978633"><ele>119.0</ele><time>2026-03-22T10:27:08.278Z</time></trkpt><trkpt lat="44.5278956" lon="10.8977897"><ele>120.0</ele><time>2026-03-22T10:27:09.279Z</time></trkpt><trkpt lat="44.5277268" lon="10.8977035"><ele>121.0</ele><time>2026-03-22T10:27:10.271Z</time></trkpt><trkpt lat="44.5275602" lon="10.8976048"><ele>122.0</ele><time>2026-03-22T10:27:11.289Z</time></trkpt><trkpt lat="44.5274034" lon="10.8974974"><ele>122.66666666666666</ele><time>2026-03-22T10:27:12.285Z</time></trkpt><trkpt lat="44.5272563" lon="10.8973857"><ele>123.33333333333334</ele><time>2026-03-22T10:27:13.285Z</time></trkpt><trkpt lat="44.527117" lon="10.8972718"><ele>124.0</ele><time>2026-03-22T10:27:14.289Z</time></trkpt><trkpt lat="44.5269888" lon="10.8971619"><ele>124.0</ele><time>2026-03-22T10:27:15.277Z</time></trkpt><trkpt lat="44.5268716" lon="10.897058"><ele>124.0</ele><time>2026-03-22T10:27:16.281Z</time></trkpt><trkpt lat="44.526764" lon="10.896964"><ele>124.0</ele><time>2026-03-22T10:27:17.292Z</time></trkpt><trkpt lat="44.5266674" lon="10.8968748"><ele>124.0</ele><time>2026-03-22T10:27:18.277Z</time></trkpt><trkpt lat="44.5265827" lon="10.8967851"><ele>124.2</ele><time>2026-03-22T10:27:19.278Z</time></trkpt><trkpt lat="44.5265078" lon="10.8966874"><ele>124.4</ele><time>2026-03-22T10:27:20.28Z</time></trkpt><trkpt lat="44.5264451" lon="10.8965742"><ele>124.6</ele><time>2026-03-22T10:27:21.276Z</time></trkpt><trkpt lat="44.5263814" lon="10.8964581"><ele>124.8</ele><time>2026-03-22T10:27:22.274Z</time></trkpt><trkpt lat="44.5263003" lon="10.896363"><ele>125.0</ele><time>2026-03-22T10:27:23.291Z</time></trkpt><trkpt lat="44.5261952" lon="10.8962964"><ele>124.5</ele><time>2026-03-22T10:27:24.276Z</time></trkpt><trkpt lat="44.5260695" lon="10.8962494"><ele>124.0</ele><time>2026-03-22T10:27:25.295Z</time></trkpt><trkpt lat="44.5259297" lon="10.8961855"><ele>123.5</ele><time>2026-03-22T10:27:26.275Z</time></trkpt><trkpt lat="44.5257802" lon="10.8960861"><ele>123.0</ele><time>2026-03-22T10:27:27.274Z</time></trkpt><trkpt lat="44.5256215" lon="10.8959579"><ele>123.33333333333334</ele><time>2026-03-22T10:27:28.287Z</time></trkpt><trkpt lat="44.5254552" lon="10.8958127"><ele>123.66666666666667</ele><time>2026-03-22T10:27:29.277Z</time></trkpt><trkpt lat="44.5252862" lon="10.8956586"><ele>124.0</ele><time>2026-03-22T10:27:30.283Z</time></trkpt><trkpt lat="44.5251177" lon="10.8955053"><ele>124.0</ele><time>2026-03-22T10:27:31.291Z</time></trkpt><trkpt lat="44.5249551" lon="10.8953536"><ele>124.0</ele><time>2026-03-22T10:27:32.286Z</time></trkpt><trkpt lat="44.5248016" lon="10.8952014"><ele>124.0</ele><time>2026-03-22T10:27:33.273Z</time></trkpt><trkpt lat="44.5246588" lon="10.8950484"><ele>123.66666666666667</ele><time>2026-03-22T10:27:34.289Z</time></trkpt><trkpt lat="44.5245291" lon="10.894896"><ele>123.33333333333334</ele><time>2026-03-22T10:27:35.287Z</time></trkpt><trkpt lat="44.524411" lon="10.894743"><ele>123.0</ele><time>2026-03-22T10:27:36.284Z</time></trkpt><trkpt lat="44.5243017" lon="10.8945886"><ele>123.0</ele><time>2026-03-22T10:27:37.275Z</time></trkpt><trkpt lat="44.5241999" lon="10.894435"><ele>123.0</ele><time>2026-03-22T10:27:38.281Z</time></trkpt><trkpt lat="44.5241017" lon="10.894284"><ele>123.0</ele><time>2026-03-22T10:27:39.274Z</time></trkpt><trkpt lat="44.5239997" lon="10.894134"><ele>123.0</ele><time>2026-03-22T10:27:40.285Z</time></trkpt><trkpt lat="44.5238931" lon="10.8939874"><ele>123.0</ele><time>2026-03-22T10:27:41.288Z</time></trkpt><trkpt lat="44.5237864" lon="10.8938456"><ele>123.0</ele><time>2026-03-22T10:27:42.28Z</time></trkpt><trkpt lat="44.5236816" lon="10.8937056"><ele>123.0</ele><time>2026-03-22T10:27:43.288Z</time></trkpt><trkpt lat="44.5235796" lon="10.893564"><ele>123.0</ele><time>2026-03-22T10:27:44.281Z</time></trkpt><trkpt lat="44.5234777" lon="10.8934172"><ele>124.33333333333334</ele><time>2026-03-22T10:27:45.285Z</time></trkpt><trkpt lat="44.5233738" lon="10.8932666"><ele>125.66666666666667</ele><time>2026-03-22T10:27:46.28Z</time></trkpt><trkpt lat="44.5232686" lon="10.8931117"><ele>127.0</ele><time>2026-03-22T10:27:47.275Z</time></trkpt><trkpt lat="44.5231614" lon="10.8929534"><ele>127.0</ele><time>2026-03-22T10:27:48.272Z</time></trkpt><trkpt lat="44.5230506" lon="10.8927937"><ele>127.0</ele><time>2026-03-22T10:27:49.284Z</time></trkpt><trkpt lat="44.5229375" lon="10.8926319"><ele>127.0</ele><time>2026-03-22T10:27:50.276Z</time></trkpt><trkpt lat="44.522823" lon="10.8924661"><ele>126.66666666666667</ele><time>2026-03-22T10:27:51.29Z</time></trkpt><trkpt lat="44.5227088" lon="10.8922989"><ele>126.33333333333334</ele><time>2026-03-22T10:27:52.279Z</time></trkpt><trkpt lat="44.522595" lon="10.8921379"><ele>126.0</ele><time>2026-03-22T10:27:53.292Z</time></trkpt><trkpt lat="44.5224784" lon="10.8919873"><ele>126.0</ele><time>2026-03-22T10:27:54.284Z</time></trkpt><trkpt lat="44.5223561" lon="10.8918476"><ele>126.0</ele><time>2026-03-22T10:27:55.275Z</time></trkpt><trkpt lat="44.5222262" lon="10.8917216"><ele>126.0</ele><time>2026-03-22T10:27:56.279Z</time></trkpt><trkpt lat="44.5220905" lon="10.8916105"><ele>126.0</ele><time>2026-03-22T10:27:57.283Z</time></trkpt><trkpt lat="44.5219499" lon="10.8915084"><ele>126.0</ele><time>2026-03-22T10:27:58.277Z</time></trkpt><trkpt lat="44.5218071" lon="10.8914089"><ele>126.0</ele><time>2026-03-22T10:27:59.275Z</time></trkpt><trkpt lat="44.5216653" lon="10.8913088"><ele>126.0</ele><time>2026-03-22T10:28:00.279Z</time></trkpt><trkpt lat="44.5215209" lon="10.8912079"><ele>126.0</ele><time>2026-03-22T10:28:01.291Z</time></trkpt><trkpt lat="44.5213736" lon="10.8911046"><ele>126.0</ele><time>2026-03-22T10:28:02.269Z</time></trkpt><trkpt lat="44.5212237" lon="10.8909983"><ele>126.66666666666666</ele><time>2026-03-22T10:28:03.288Z</time></trkpt><trkpt lat="44.5210711" lon="10.89089"><ele>127.33333333333333</ele><time>2026-03-22T10:28:04.284Z</time></trkpt><trkpt lat="44.5209154" lon="10.8907796"><ele>128.0</ele><time>2026-03-22T10:28:05.277Z</time></trkpt><trkpt lat="44.5207575" lon="10.8906678"><ele>128.0</ele><time>2026-03-22T10:28:06.281Z</time></trkpt><trkpt lat="44.5205979" lon="10.8905553"><ele>128.0</ele><time>2026-03-22T10:28:07.281Z</time></trkpt><trkpt lat="44.5204369" lon="10.8904436"><ele>128.0</ele><time>2026-03-22T10:28:08.287Z</time></trkpt><trkpt lat="44.5202741" lon="10.8903324"><ele>128.66666666666666</ele><time>2026-03-22T10:28:09.288Z</time></trkpt><trkpt lat="44.5201102" lon="10.8902188"><ele>129.33333333333334</ele><time>2026-03-22T10:28:10.287Z</time></trkpt><trkpt lat="44.5199453" lon="10.8901045"><ele>130.0</ele><time>2026-03-22T10:28:11.294Z</time></trkpt><trkpt lat="44.5197794" lon="10.8899901"><ele>130.66666666666669</ele><time>2026-03-22T10:28:12.272Z</time></trkpt><trkpt lat="44.5196146" lon="10.8898749"><ele>131.33333333333334</ele><time>2026-03-22T10:28:13.288Z</time></trkpt><trkpt lat="44.5194517" lon="10.8897585"><ele>132.0</ele><time>2026-03-22T10:28:14.283Z</time></trkpt><trkpt lat="44.5192902" lon="10.8896422"><ele>132.0</ele><time>2026-03-22T10:28:15.278Z</time></trkpt><trkpt lat="44.5191329" lon="10.889527"><ele>132.0</ele><time>2026-03-22T10:28:16.28Z</time></trkpt><trkpt lat="44.5189816" lon="10.8894156"><ele>132.0</ele><time>2026-03-22T10:28:17.286Z</time></trkpt><trkpt lat="44.518835" lon="10.8893066"><ele>132.0</ele><time>2026-03-22T10:28:18.281Z</time></trkpt><trkpt lat="44.5186906" lon="10.8891951"><ele>132.0</ele><time>2026-03-22T10:28:19.291Z</time></trkpt><trkpt lat="44.5185498" lon="10.8890803"><ele>132.0</ele><time>2026-03-22T10:28:20.293Z</time></trkpt><trkpt lat="44.5184111" lon="10.8889594"><ele>132.0</ele><time>2026-03-22T10:28:21.287Z</time></trkpt><trkpt lat="44.5182744" lon="10.888835"><ele>132.0</ele><time>2026-03-22T10:28:22.284Z</time></trkpt><trkpt lat="44.5181417" lon="10.8887057"><ele>132.0</ele><time>2026-03-22T10:28:23.276Z</time></trkpt><trkpt lat="44.5180109" lon="10.8885702"><ele>132.66666666666666</ele><time>2026-03-22T10:28:24.286Z</time></trkpt><trkpt lat="44.5178829" lon="10.8884316"><ele>133.33333333333331</ele><time>2026-03-22T10:28:25.269Z</time></trkpt><trkpt lat="44.5177564" lon="10.8882865"><ele>134.0</ele><time>2026-03-22T10:28:26.275Z</time></trkpt><trkpt lat="44.5176364" lon="10.8881377"><ele>134.0</ele><time>2026-03-22T10:28:27.273Z</time></trkpt><trkpt lat="44.5175197" lon="10.8879867"><ele>134.0</ele><time>2026-03-22T10:28:28.288Z</time></trkpt><trkpt lat="44.5174069" lon="10.8878374"><ele>134.0</ele><time>2026-03-22T10:28:29.274Z</time></trkpt><trkpt lat="44.5172971" lon="10.8876874"><ele>134.5</ele><time>2026-03-22T10:28:30.277Z</time></trkpt><trkpt lat="44.5171921" lon="10.8875378"><ele>135.0</ele><time>2026-03-22T10:28:31.273Z</time></trkpt><trkpt lat="44.5170904" lon="10.8873847"><ele>135.5</ele><time>2026-03-22T10:28:32.275Z</time></trkpt><trkpt lat="44.5169934" lon="10.8872284"><ele>136.0</ele><time>2026-03-22T10:28:33.287Z</time></trkpt><trkpt lat="44.5169" lon="10.8870706"><ele>136.25</ele><time>2026-03-22T10:28:34.272Z</time></trkpt><trkpt lat="44.516804" lon="10.8869063"><ele>136.5</ele><time>2026-03-22T10:28:35.294Z</time></trkpt><trkpt lat="44.5167093" lon="10.8867451"><ele>136.75</ele><time>2026-03-22T10:28:36.278Z</time></trkpt><trkpt lat="44.5166147" lon="10.8865853"><ele>137.0</ele><time>2026-03-22T10:28:37.272Z</time></trkpt><trkpt lat="44.5165193" lon="10.8864244"><ele>137.0</ele><time>2026-03-22T10:28:38.289Z</time></trkpt><trkpt lat="44.5164251" lon="10.8862635"><ele>137.0</ele><time>2026-03-22T10:28:39.277Z</time></trkpt><trkpt lat="44.5163302" lon="10.8861002"><ele>137.0</ele><time>2026-03-22T10:28:40.274Z</time></trkpt><trkpt lat="44.5162353" lon="10.8859353"><ele>137.0</ele><time>2026-03-22T10:28:41.287Z</time></trkpt><trkpt lat="44.5161396" lon="10.8857743"><ele>137.0</ele><time>2026-03-22T10:28:42.276Z</time></trkpt><trkpt lat="44.5160427" lon="10.8856117"><ele>137.0</ele><time>2026-03-22T10:28:43.271Z</time></trkpt><trkpt lat="44.5159454" lon="10.8854479"><ele>137.0</ele><time>2026-03-22T10:28:44.292Z</time></trkpt><trkpt lat="44.5158536" lon="10.8852942"><ele>137.0</ele><time>2026-03-22T10:28:45.278Z</time></trkpt><trkpt lat="44.5157633" lon="10.8851503"><ele>137.0</ele><time>2026-03-22T10:28:46.271Z</time></trkpt><trkpt lat="44.5156728" lon="10.8850087"><ele>137.0</ele><time>2026-03-22T10:28:47.281Z</time></trkpt><trkpt lat="44.5155825" lon="10.8848625"><ele>137.0</ele><time>2026-03-22T10:28:48.28Z</time></trkpt><trkpt lat="44.5154921" lon="10.8847101"><ele>137.0</ele><time>2026-03-22T10:28:49.27Z</time></trkpt><trkpt lat="44.5154001" lon="10.8845525"><ele>137.0</ele><time>2026-03-22T10:28:50.289Z</time></trkpt><trkpt lat="44.5153082" lon="10.8843969"><ele>137.0</ele><time>2026-03-22T10:28:51.279Z</time></trkpt><trkpt lat="44.5152156" lon="10.8842408"><ele>137.25</ele><time>2026-03-22T10:28:52.28Z</time></trkpt><trkpt lat="44.5151224" lon="10.8840841"><ele>137.5</ele><time>2026-03-22T10:28:53.29Z</time></trkpt><trkpt lat="44.515029" lon="10.8839265"><ele>137.75</ele><time>2026-03-22T10:28:54.285Z</time></trkpt><trkpt lat="44.5149341" lon="10.8837669"><ele>138.0</ele><time>2026-03-22T10:28:55.284Z</time></trkpt><trkpt lat="44.514839" lon="10.8836058"><ele>138.0</ele><time>2026-03-22T10:28:56.293Z</time></trkpt><trkpt lat="44.5147452" lon="10.883446"><ele>138.0</ele><time>2026-03-22T10:28:57.274Z</time></trkpt><trkpt lat="44.51465" lon="10.8832839"><ele>138.0</ele><time>2026-03-22T10:28:58.294Z</time></trkpt><trkpt lat="44.5145552" lon="10.8831227"><ele>138.0</ele><time>2026-03-22T10:28:59.286Z</time></trkpt><trkpt lat="44.5144584" lon="10.8829588"><ele>138.25</ele><time>2026-03-22T10:29:00.289Z</time></trkpt><trkpt lat="44.5143629" lon="10.8827967"><ele>138.5</ele><time>2026-03-22T10:29:01.283Z</time></trkpt><trkpt lat="44.5142723" lon="10.8826435"><ele>138.75</ele><time>2026-03-22T10:29:02.269Z</time></trkpt><trkpt lat="44.5141884" lon="10.8824996"><ele>139.0</ele><time>2026-03-22T10:29:03.271Z</time></trkpt><trkpt lat="44.514111" lon="10.882365"><ele>139.8</ele><time>2026-03-22T10:29:04.271Z</time></trkpt><trkpt lat="44.5140386" lon="10.8822376"><ele>140.60000000000002</ele><time>2026-03-22T10:29:05.274Z</time></trkpt><trkpt lat="44.5139704" lon="10.8821178"><ele>141.4</ele><time>2026-03-22T10:29:06.279Z</time></trkpt><trkpt lat="44.5139057" lon="10.8820052"><ele>142.20000000000002</ele><time>2026-03-22T10:29:07.294Z</time></trkpt><trkpt lat="44.5138452" lon="10.8819009"><ele>143.0</ele><time>2026-03-22T10:29:08.288Z</time></trkpt><trkpt lat="44.5137855" lon="10.8818009"><ele>143.20000000000002</ele><time>2026-03-22T10:29:09.294Z</time></trkpt><trkpt lat="44.5137241" lon="10.8817005"><ele>143.4</ele><time>2026-03-22T10:29:10.29Z</time></trkpt><trkpt lat="44.5136603" lon="10.881602"><ele>143.60000000000002</ele><time>2026-03-22T10:29:11.284Z</time></trkpt><trkpt lat="44.5135978" lon="10.8815085"><ele>143.8</ele><time>2026-03-22T10:29:12.273Z</time></trkpt><trkpt lat="44.5135383" lon="10.8814168"><ele>144.0</ele><time>2026-03-22T10:29:13.288Z</time></trkpt><trkpt lat="44.5134829" lon="10.8813289"><ele>144.0</ele><time>2026-03-22T10:29:14.274Z</time></trkpt><trkpt lat="44.5134308" lon="10.8812421"><ele>144.0</ele><time>2026-03-22T10:29:15.288Z</time></trkpt><trkpt lat="44.5133829" lon="10.8811575"><ele>144.0</ele><time>2026-03-22T10:29:16.287Z</time></trkpt><trkpt lat="44.5133378" lon="10.8810778"><ele>144.0</ele><time>2026-03-22T10:29:17.271Z</time></trkpt><trkpt lat="44.5132969" lon="10.8810072"><ele>144.0</ele><time>2026-03-22T10:29:18.273Z</time></trkpt><trkpt lat="44.5132424" lon="10.8809103"><ele>144.0</ele><time>2026-03-22T10:29:20.287Z</time></trkpt><trkpt lat="44.5132039" lon="10.8808272"><ele>144.0</ele><time>2026-03-22T10:29:31.283Z</time></trkpt><trkpt lat="44.5131323" lon="10.8806922"><ele>144.0</ele><time>2026-03-22T10:29:33.289Z</time></trkpt><trkpt lat="44.5130763" lon="10.8805927"><ele>144.0</ele><time>2026-03-22T10:29:34.28Z</time></trkpt><trkpt lat="44.5130113" lon="10.8804826"><ele>144.0</ele><time>2026-03-22T10:29:35.292Z</time></trkpt><trkpt lat="44.5129364" lon="10.8803689"><ele>144.0</ele><time>2026-03-22T10:29:36.27Z</time></trkpt><trkpt lat="44.5128566" lon="10.8802542"><ele>144.25</ele><time>2026-03-22T10:29:37.287Z</time></trkpt><trkpt lat="44.5127764" lon="10.8801301"><ele>144.5</ele><time>2026-03-22T10:29:38.277Z</time></trkpt><trkpt lat="44.5126946" lon="10.8799989"><ele>144.75</ele><time>2026-03-22T10:29:39.272Z</time></trkpt><trkpt lat="44.5126116" lon="10.8798626"><ele>145.0</ele><time>2026-03-22T10:29:40.278Z</time></trkpt><trkpt lat="44.5125258" lon="10.879722"><ele>145.5</ele><time>2026-03-22T10:29:41.272Z</time></trkpt><trkpt lat="44.5124389" lon="10.8795782"><ele>146.0</ele><time>2026-03-22T10:29:42.266Z</time></trkpt><trkpt lat="44.5123532" lon="10.8794312"><ele>146.5</ele><time>2026-03-22T10:29:43.269Z</time></trkpt><trkpt lat="44.5122638" lon="10.8792771"><ele>147.0</ele><time>2026-03-22T10:29:44.27Z</time></trkpt><trkpt lat="44.5121752" lon="10.8791221"><ele>147.0</ele><time>2026-03-22T10:29:45.286Z</time></trkpt><trkpt lat="44.5120819" lon="10.878963"><ele>147.0</ele><time>2026-03-22T10:29:46.284Z</time></trkpt><trkpt lat="44.5119866" lon="10.8788045"><ele>147.0</ele><time>2026-03-22T10:29:47.299Z</time></trkpt><trkpt lat="44.5118914" lon="10.8786436"><ele>147.0</ele><time>2026-03-22T10:29:48.284Z</time></trkpt><trkpt lat="44.5117961" lon="10.8784774"><ele>147.66666666666666</ele><time>2026-03-22T10:29:49.281Z</time></trkpt><trkpt lat="44.5117004" lon="10.8783083"><ele>148.33333333333331</ele><time>2026-03-22T10:29:50.263Z</time></trkpt><trkpt lat="44.5116029" lon="10.8781399"><ele>149.0</ele><time>2026-03-22T10:29:51.281Z</time></trkpt><trkpt lat="44.5115031" lon="10.877971"><ele>149.0</ele><time>2026-03-22T10:29:52.287Z</time></trkpt><trkpt lat="44.5114024" lon="10.8778013"><ele>149.0</ele><time>2026-03-22T10:29:53.29Z</time></trkpt><trkpt lat="44.5112987" lon="10.8776293"><ele>149.0</ele><time>2026-03-22T10:29:54.273Z</time></trkpt><trkpt lat="44.5111886" lon="10.8774517"><ele>150.0</ele><time>2026-03-22T10:29:55.285Z</time></trkpt><trkpt lat="44.5110707" lon="10.8772752"><ele>151.0</ele><time>2026-03-22T10:29:56.28Z</time></trkpt><trkpt lat="44.5109458" lon="10.877105"><ele>152.0</ele><time>2026-03-22T10:29:57.273Z</time></trkpt><trkpt lat="44.5108116" lon="10.8769454"><ele>152.0</ele><time>2026-03-22T10:29:58.283Z</time></trkpt><trkpt lat="44.5106701" lon="10.8767949"><ele>152.0</ele><time>2026-03-22T10:29:59.271Z</time></trkpt><trkpt lat="44.5105207" lon="10.8766549"><ele>152.0</ele><time>2026-03-22T10:30:00.29Z</time></trkpt><trkpt lat="44.5103676" lon="10.8765213"><ele>152.66666666666666</ele><time>2026-03-22T10:30:01.269Z</time></trkpt><trkpt lat="44.5102118" lon="10.8763945"><ele>153.33333333333334</ele><time>2026-03-22T10:30:02.285Z</time></trkpt><trkpt lat="44.5100521" lon="10.8762812"><ele>154.0</ele><time>2026-03-22T10:30:03.274Z</time></trkpt><trkpt lat="44.5098883" lon="10.8761865"><ele>154.0</ele><time>2026-03-22T10:30:04.286Z</time></trkpt><trkpt lat="44.5097195" lon="10.8761118"><ele>154.0</ele><time>2026-03-22T10:30:05.288Z</time></trkpt><trkpt lat="44.5095473" lon="10.87605"><ele>154.0</ele><time>2026-03-22T10:30:06.288Z</time></trkpt><trkpt lat="44.5093733" lon="10.8759984"><ele>154.33333333333334</ele><time>2026-03-22T10:30:07.287Z</time></trkpt><trkpt lat="44.5091977" lon="10.8759532"><ele>154.66666666666666</ele><time>2026-03-22T10:30:08.28Z</time></trkpt><trkpt lat="44.5090206" lon="10.8759113"><ele>155.0</ele><time>2026-03-22T10:30:09.279Z</time></trkpt><trkpt lat="44.5088425" lon="10.8758683"><ele>155.66666666666666</ele><time>2026-03-22T10:30:10.276Z</time></trkpt><trkpt lat="44.5086643" lon="10.8758245"><ele>156.33333333333334</ele><time>2026-03-22T10:30:11.282Z</time></trkpt><trkpt lat="44.5084843" lon="10.8757803"><ele>157.0</ele><time>2026-03-22T10:30:12.285Z</time></trkpt><trkpt lat="44.5083022" lon="10.8757363"><ele>157.0</ele><time>2026-03-22T10:30:13.284Z</time></trkpt><trkpt lat="44.5081187" lon="10.8756933"><ele>157.0</ele><time>2026-03-22T10:30:14.29Z</time></trkpt><trkpt lat="44.5079344" lon="10.8756494"><ele>157.0</ele><time>2026-03-22T10:30:15.282Z</time></trkpt><trkpt lat="44.5077515" lon="10.8756061"><ele>157.33333333333334</ele><time>2026-03-22T10:30:16.268Z</time></trkpt><trkpt lat="44.5075696" lon="10.8755623"><ele>157.66666666666666</ele><time>2026-03-22T10:30:17.279Z</time></trkpt><trkpt lat="44.5073875" lon="10.8755172"><ele>158.0</ele><time>2026-03-22T10:30:18.279Z</time></trkpt><trkpt lat="44.5072062" lon="10.8754713"><ele>156.66666666666666</ele><time>2026-03-22T10:30:19.279Z</time></trkpt><trkpt lat="44.507025" lon="10.8754259"><ele>155.33333333333334</ele><time>2026-03-22T10:30:20.268Z</time></trkpt><trkpt lat="44.5068433" lon="10.8753801"><ele>154.0</ele><time>2026-03-22T10:30:21.279Z</time></trkpt><trkpt lat="44.5066612" lon="10.875331"><ele>154.0</ele><time>2026-03-22T10:30:22.288Z</time></trkpt><trkpt lat="44.5064776" lon="10.8752786"><ele>154.0</ele><time>2026-03-22T10:30:23.292Z</time></trkpt><trkpt lat="44.5062947" lon="10.8752199"><ele>154.0</ele><time>2026-03-22T10:30:24.273Z</time></trkpt><trkpt lat="44.5061137" lon="10.8751548"><ele>157.0</ele><time>2026-03-22T10:30:25.286Z</time></trkpt><trkpt lat="44.5059344" lon="10.8750827"><ele>160.0</ele><time>2026-03-22T10:30:26.294Z</time></trkpt><trkpt lat="44.5057565" lon="10.8750051"><ele>163.0</ele><time>2026-03-22T10:30:27.282Z</time></trkpt><trkpt lat="44.5055776" lon="10.8749234"><ele>162.66666666666669</ele><time>2026-03-22T10:30:28.276Z</time></trkpt><trkpt lat="44.5053968" lon="10.8748355"><ele>162.33333333333334</ele><time>2026-03-22T10:30:29.285Z</time></trkpt><trkpt lat="44.5052146" lon="10.8747426"><ele>162.0</ele><time>2026-03-22T10:30:30.286Z</time></trkpt><trkpt lat="44.5050314" lon="10.8746463"><ele>162.0</ele><time>2026-03-22T10:30:31.285Z</time></trkpt><trkpt lat="44.5048469" lon="10.8745474"><ele>162.0</ele><time>2026-03-22T10:30:32.273Z</time></trkpt><trkpt lat="44.5046602" lon="10.8744468"><ele>162.0</ele><time>2026-03-22T10:30:33.282Z</time></trkpt><trkpt lat="44.5044713" lon="10.8743433"><ele>164.0</ele><time>2026-03-22T10:30:34.292Z</time></trkpt><trkpt lat="44.5042803" lon="10.874238"><ele>166.0</ele><time>2026-03-22T10:30:35.281Z</time></trkpt><trkpt lat="44.5040885" lon="10.8741304"><ele>168.0</ele><time>2026-03-22T10:30:36.289Z</time></trkpt><trkpt lat="44.5038958" lon="10.8740218"><ele>167.0</ele><time>2026-03-22T10:30:37.286Z</time></trkpt><trkpt lat="44.5037021" lon="10.873914"><ele>166.0</ele><time>2026-03-22T10:30:38.274Z</time></trkpt><trkpt lat="44.503508" lon="10.873807"><ele>165.0</ele><time>2026-03-22T10:30:39.279Z</time></trkpt><trkpt lat="44.5033141" lon="10.8737011"><ele>165.0</ele><time>2026-03-22T10:30:40.281Z</time></trkpt><trkpt lat="44.5031219" lon="10.8735928"><ele>165.0</ele><time>2026-03-22T10:30:41.284Z</time></trkpt><trkpt lat="44.5029314" lon="10.8734845"><ele>165.0</ele><time>2026-03-22T10:30:42.29Z</time></trkpt><trkpt lat="44.5027422" lon="10.8733748"><ele>167.33333333333334</ele><time>2026-03-22T10:30:43.279Z</time></trkpt><trkpt lat="44.5025534" lon="10.8732637"><ele>169.66666666666669</ele><time>2026-03-22T10:30:44.286Z</time></trkpt><trkpt lat="44.5023636" lon="10.8731543"><ele>172.0</ele><time>2026-03-22T10:30:45.287Z</time></trkpt><trkpt lat="44.5021722" lon="10.8730499"><ele>171.0</ele><time>2026-03-22T10:30:46.293Z</time></trkpt><trkpt lat="44.5019784" lon="10.8729494"><ele>170.0</ele><time>2026-03-22T10:30:47.291Z</time></trkpt><trkpt lat="44.5017839" lon="10.8728519"><ele>169.0</ele><time>2026-03-22T10:30:48.286Z</time></trkpt><trkpt lat="44.5015907" lon="10.8727563"><ele>169.0</ele><time>2026-03-22T10:30:49.27Z</time></trkpt><trkpt lat="44.5013992" lon="10.8726616"><ele>169.0</ele><time>2026-03-22T10:30:50.278Z</time></trkpt><trkpt lat="44.5012083" lon="10.8725687"><ele>169.0</ele><time>2026-03-22T10:30:51.269Z</time></trkpt><trkpt lat="44.5010201" lon="10.8724782"><ele>171.0</ele><time>2026-03-22T10:30:52.284Z</time></trkpt><trkpt lat="44.5008426" lon="10.8723922"><ele>173.0</ele><time>2026-03-22T10:30:53.284Z</time></trkpt><trkpt lat="44.5006779" lon="10.8723052"><ele>175.0</ele><time>2026-03-22T10:30:54.293Z</time></trkpt><trkpt lat="44.5005254" lon="10.8722155"><ele>174.33333333333334</ele><time>2026-03-22T10:30:55.287Z</time></trkpt><trkpt lat="44.5003841" lon="10.8721153"><ele>173.66666666666666</ele><time>2026-03-22T10:30:56.28Z</time></trkpt><trkpt lat="44.5002505" lon="10.8719996"><ele>173.0</ele><time>2026-03-22T10:30:57.289Z</time></trkpt><trkpt lat="44.5001223" lon="10.8718709"><ele>174.33333333333331</ele><time>2026-03-22T10:30:58.276Z</time></trkpt><trkpt lat="44.4999979" lon="10.8717343"><ele>175.66666666666666</ele><time>2026-03-22T10:30:59.278Z</time></trkpt><trkpt lat="44.4998746" lon="10.8715951"><ele>177.0</ele><time>2026-03-22T10:31:00.285Z</time></trkpt><trkpt lat="44.4997517" lon="10.8714543"><ele>177.0</ele><time>2026-03-22T10:31:01.269Z</time></trkpt><trkpt lat="44.4996287" lon="10.8713142"><ele>177.0</ele><time>2026-03-22T10:31:02.283Z</time></trkpt><trkpt lat="44.4995046" lon="10.8711696"><ele>177.0</ele><time>2026-03-22T10:31:03.292Z</time></trkpt><trkpt lat="44.499379" lon="10.8710202"><ele>176.66666666666666</ele><time>2026-03-22T10:31:04.284Z</time></trkpt><trkpt lat="44.4992527" lon="10.870867"><ele>176.33333333333331</ele><time>2026-03-22T10:31:05.279Z</time></trkpt><trkpt lat="44.4991285" lon="10.8707063"><ele>176.0</ele><time>2026-03-22T10:31:06.28Z</time></trkpt><trkpt lat="44.4990064" lon="10.8705347"><ele>176.0</ele><time>2026-03-22T10:31:07.287Z</time></trkpt><trkpt lat="44.4988841" lon="10.8703489"><ele>176.0</ele><time>2026-03-22T10:31:08.282Z</time></trkpt><trkpt lat="44.4987574" lon="10.8701502"><ele>176.0</ele><time>2026-03-22T10:31:09.272Z</time></trkpt><trkpt lat="44.4986223" lon="10.8699379"><ele>176.33333333333331</ele><time>2026-03-22T10:31:10.285Z</time></trkpt><trkpt lat="44.4984786" lon="10.8697123"><ele>176.66666666666666</ele><time>2026-03-22T10:31:11.291Z</time></trkpt><trkpt lat="44.4983289" lon="10.8694744"><ele>177.0</ele><time>2026-03-22T10:31:12.283Z</time></trkpt><trkpt lat="44.4981748" lon="10.8692285"><ele>177.0</ele><time>2026-03-22T10:31:13.28Z</time></trkpt><trkpt lat="44.4980201" lon="10.8689792"><ele>177.0</ele><time>2026-03-22T10:31:14.285Z</time></trkpt><trkpt lat="44.4978615" lon="10.8687249"><ele>177.0</ele><time>2026-03-22T10:31:15.276Z</time></trkpt><trkpt lat="44.4976993" lon="10.868466"><ele>177.0</ele><time>2026-03-22T10:31:16.291Z</time></trkpt><trkpt lat="44.4975402" lon="10.8682129"><ele>177.0</ele><time>2026-03-22T10:31:17.285Z</time></trkpt><trkpt lat="44.4973784" lon="10.86797"><ele>177.0</ele><time>2026-03-22T10:31:18.289Z</time></trkpt><trkpt lat="44.4972052" lon="10.8677377"><ele>176.5</ele><time>2026-03-22T10:31:19.275Z</time></trkpt><trkpt lat="44.4970182" lon="10.8675168"><ele>176.0</ele><time>2026-03-22T10:31:20.27Z</time></trkpt><trkpt lat="44.4968173" lon="10.8673075"><ele>176.0</ele><time>2026-03-22T10:31:21.287Z</time></trkpt><trkpt lat="44.4966038" lon="10.867109"><ele>176.0</ele><time>2026-03-22T10:31:22.287Z</time></trkpt><trkpt lat="44.4963786" lon="10.8669212"><ele>177.0</ele><time>2026-03-22T10:31:23.292Z</time></trkpt><trkpt lat="44.4961442" lon="10.8667446"><ele>178.0</ele><time>2026-03-22T10:31:24.273Z</time></trkpt><trkpt lat="44.4959067" lon="10.8665767"><ele>178.0</ele><time>2026-03-22T10:31:25.287Z</time></trkpt><trkpt lat="44.4956783" lon="10.8664192"><ele>178.0</ele><time>2026-03-22T10:31:26.273Z</time></trkpt><trkpt lat="44.4954606" lon="10.8662706"><ele>179.0</ele><time>2026-03-22T10:31:27.291Z</time></trkpt><trkpt lat="44.4952513" lon="10.8661303"><ele>180.0</ele><time>2026-03-22T10:31:28.275Z</time></trkpt><trkpt lat="44.4950544" lon="10.8659979"><ele>179.66666666666666</ele><time>2026-03-22T10:31:29.275Z</time></trkpt><trkpt lat="44.4948719" lon="10.8658739"><ele>179.33333333333331</ele><time>2026-03-22T10:31:30.295Z</time></trkpt><trkpt lat="44.4946984" lon="10.8657548"><ele>179.0</ele><time>2026-03-22T10:31:31.276Z</time></trkpt><trkpt lat="44.4945269" lon="10.8656391"><ele>179.66666666666666</ele><time>2026-03-22T10:31:32.284Z</time></trkpt><trkpt lat="44.494346" lon="10.8655248"><ele>180.33333333333334</ele><time>2026-03-22T10:31:33.271Z</time></trkpt><trkpt lat="44.4941523" lon="10.8654076"><ele>181.0</ele><time>2026-03-22T10:31:34.284Z</time></trkpt><trkpt lat="44.4939479" lon="10.86528"><ele>181.0</ele><time>2026-03-22T10:31:35.277Z</time></trkpt><trkpt lat="44.4937374" lon="10.8651359"><ele>181.0</ele><time>2026-03-22T10:31:36.286Z</time></trkpt><trkpt lat="44.493523" lon="10.8649756"><ele>181.0</ele><time>2026-03-22T10:31:37.281Z</time></trkpt><trkpt lat="44.4933028" lon="10.8648107"><ele>181.0</ele><time>2026-03-22T10:31:38.289Z</time></trkpt><trkpt lat="44.4930746" lon="10.8646499"><ele>182.0</ele><time>2026-03-22T10:31:39.29Z</time></trkpt><trkpt lat="44.4928421" lon="10.8644892"><ele>183.0</ele><time>2026-03-22T10:31:40.29Z</time></trkpt><trkpt lat="44.4926084" lon="10.8643285"><ele>183.5</ele><time>2026-03-22T10:31:41.278Z</time></trkpt><trkpt lat="44.4923747" lon="10.864169"><ele>184.0</ele><time>2026-03-22T10:31:42.273Z</time></trkpt><trkpt lat="44.4921398" lon="10.86401"><ele>185.0</ele><time>2026-03-22T10:31:43.289Z</time></trkpt><trkpt lat="44.4919041" lon="10.8638498"><ele>186.0</ele><time>2026-03-22T10:31:44.271Z</time></trkpt><trkpt lat="44.4916678" lon="10.8636875"><ele>186.0</ele><time>2026-03-22T10:31:45.286Z</time></trkpt><trkpt lat="44.4914312" lon="10.863524"><ele>186.0</ele><time>2026-03-22T10:31:46.277Z</time></trkpt><trkpt lat="44.4911938" lon="10.8633594"><ele>188.0</ele><time>2026-03-22T10:31:47.276Z</time></trkpt><trkpt lat="44.4909574" lon="10.8631886"><ele>190.0</ele><time>2026-03-22T10:31:48.281Z</time></trkpt><trkpt lat="44.4907242" lon="10.8630069"><ele>190.0</ele><time>2026-03-22T10:31:49.282Z</time></trkpt><trkpt lat="44.4904933" lon="10.8628175"><ele>190.0</ele><time>2026-03-22T10:31:50.283Z</time></trkpt><trkpt lat="44.4902627" lon="10.8626253"><ele>189.5</ele><time>2026-03-22T10:31:51.287Z</time></trkpt><trkpt lat="44.4900312" lon="10.8624331"><ele>189.0</ele><time>2026-03-22T10:31:52.285Z</time></trkpt><trkpt lat="44.4897984" lon="10.8622422"><ele>188.5</ele><time>2026-03-22T10:31:53.275Z</time></trkpt><trkpt lat="44.4895645" lon="10.8620527"><ele>188.0</ele><time>2026-03-22T10:31:54.277Z</time></trkpt><trkpt lat="44.4893304" lon="10.8618645"><ele>188.5</ele><time>2026-03-22T10:31:55.278Z</time></trkpt><trkpt lat="44.489097" lon="10.8616765"><ele>189.0</ele><time>2026-03-22T10:31:56.275Z</time></trkpt><trkpt lat="44.4888646" lon="10.8614874"><ele>190.0</ele><time>2026-03-22T10:31:57.29Z</time></trkpt><trkpt lat="44.4886327" lon="10.8612982"><ele>191.0</ele><time>2026-03-22T10:31:58.273Z</time></trkpt><trkpt lat="44.4884017" lon="10.8611089"><ele>192.5</ele><time>2026-03-22T10:31:59.279Z</time></trkpt><trkpt lat="44.4881712" lon="10.8609196"><ele>194.0</ele><time>2026-03-22T10:32:00.275Z</time></trkpt><trkpt lat="44.4879416" lon="10.8607295"><ele>193.5</ele><time>2026-03-22T10:32:01.29Z</time></trkpt><trkpt lat="44.4877133" lon="10.8605387"><ele>193.0</ele><time>2026-03-22T10:32:02.277Z</time></trkpt><trkpt lat="44.4874842" lon="10.8603503"><ele>193.0</ele><time>2026-03-22T10:32:03.289Z</time></trkpt><trkpt lat="44.4872585" lon="10.8601654"><ele>193.0</ele><time>2026-03-22T10:32:04.284Z</time></trkpt><trkpt lat="44.4870398" lon="10.8599844"><ele>195.5</ele><time>2026-03-22T10:32:05.29Z</time></trkpt><trkpt lat="44.4868353" lon="10.8598066"><ele>198.0</ele><time>2026-03-22T10:32:06.283Z</time></trkpt><trkpt lat="44.4866443" lon="10.8596147"><ele>198.0</ele><time>2026-03-22T10:32:07.284Z</time></trkpt><trkpt lat="44.4864749" lon="10.8593956"><ele>198.0</ele><time>2026-03-22T10:32:08.271Z</time></trkpt><trkpt lat="44.4863267" lon="10.8591441"><ele>199.0</ele><time>2026-03-22T10:32:09.282Z</time></trkpt><trkpt lat="44.486191" lon="10.8588801"><ele>200.0</ele><time>2026-03-22T10:32:10.285Z</time></trkpt><trkpt lat="44.4860567" lon="10.8586241"><ele>202.0</ele><time>2026-03-22T10:32:11.286Z</time></trkpt><trkpt lat="44.4859165" lon="10.8583696"><ele>204.0</ele><time>2026-03-22T10:32:12.289Z</time></trkpt><trkpt lat="44.4857758" lon="10.8581154"><ele>204.0</ele><time>2026-03-22T10:32:13.282Z</time></trkpt><trkpt lat="44.485634" lon="10.8578581"><ele>204.0</ele><time>2026-03-22T10:32:14.28Z</time></trkpt><trkpt lat="44.4854927" lon="10.8576016"><ele>203.5</ele><time>2026-03-22T10:32:15.268Z</time></trkpt><trkpt lat="44.4853473" lon="10.8573452"><ele>203.0</ele><time>2026-03-22T10:32:16.274Z</time></trkpt><trkpt lat="44.4851928" lon="10.8570992"><ele>203.0</ele><time>2026-03-22T10:32:17.285Z</time></trkpt><trkpt lat="44.4850247" lon="10.8568752"><ele>203.0</ele><time>2026-03-22T10:32:18.273Z</time></trkpt><trkpt lat="44.4848392" lon="10.8566756"><ele>204.0</ele><time>2026-03-22T10:32:19.277Z</time></trkpt><trkpt lat="44.4846369" lon="10.8565087"><ele>205.0</ele><time>2026-03-22T10:32:20.268Z</time></trkpt><trkpt lat="44.4844177" lon="10.8563716"><ele>205.0</ele><time>2026-03-22T10:32:21.286Z</time></trkpt><trkpt lat="44.4841888" lon="10.8562682"><ele>205.0</ele><time>2026-03-22T10:32:22.273Z</time></trkpt><trkpt lat="44.4839478" lon="10.8561848"><ele>205.5</ele><time>2026-03-22T10:32:23.292Z</time></trkpt><trkpt lat="44.4837051" lon="10.8561135"><ele>206.0</ele><time>2026-03-22T10:32:24.286Z</time></trkpt><trkpt lat="44.4834586" lon="10.8560415"><ele>206.0</ele><time>2026-03-22T10:32:25.29Z</time></trkpt><trkpt lat="44.4832122" lon="10.8559639"><ele>206.0</ele><time>2026-03-22T10:32:26.296Z</time></trkpt><trkpt lat="44.4829677" lon="10.8558819"><ele>207.0</ele><time>2026-03-22T10:32:27.281Z</time></trkpt><trkpt lat="44.4827176" lon="10.8557981"><ele>208.0</ele><time>2026-03-22T10:32:28.29Z</time></trkpt><trkpt lat="44.4824709" lon="10.855717"><ele>208.0</ele><time>2026-03-22T10:32:29.287Z</time></trkpt><trkpt lat="44.4822253" lon="10.8556338"><ele>208.0</ele><time>2026-03-22T10:32:30.285Z</time></trkpt><trkpt lat="44.4819822" lon="10.85554"><ele>208.0</ele><time>2026-03-22T10:32:31.287Z</time></trkpt><trkpt lat="44.481744" lon="10.8554293"><ele>208.0</ele><time>2026-03-22T10:32:32.28Z</time></trkpt><trkpt lat="44.4815136" lon="10.8552898"><ele>208.0</ele><time>2026-03-22T10:32:33.276Z</time></trkpt><trkpt lat="44.4812936" lon="10.8551214"><ele>208.0</ele><time>2026-03-22T10:32:34.281Z</time></trkpt><trkpt lat="44.4810839" lon="10.8549301"><ele>209.5</ele><time>2026-03-22T10:32:35.286Z</time></trkpt><trkpt lat="44.4808862" lon="10.8547131"><ele>211.0</ele><time>2026-03-22T10:32:36.275Z</time></trkpt><trkpt lat="44.4806953" lon="10.8544791"><ele>213.0</ele><time>2026-03-22T10:32:37.28Z</time></trkpt><trkpt lat="44.4805132" lon="10.8542312"><ele>215.0</ele><time>2026-03-22T10:32:38.286Z</time></trkpt><trkpt lat="44.4803359" lon="10.8539756"><ele>215.0</ele><time>2026-03-22T10:32:39.292Z</time></trkpt><trkpt lat="44.4801584" lon="10.8537207"><ele>215.0</ele><time>2026-03-22T10:32:40.289Z</time></trkpt><trkpt lat="44.4799788" lon="10.8534655"><ele>218.0</ele><time>2026-03-22T10:32:41.275Z</time></trkpt><trkpt lat="44.4797953" lon="10.8532066"><ele>221.0</ele><time>2026-03-22T10:32:42.292Z</time></trkpt><trkpt lat="44.4796141" lon="10.8529516"><ele>220.5</ele><time>2026-03-22T10:32:43.288Z</time></trkpt><trkpt lat="44.4794351" lon="10.8526981"><ele>220.0</ele><time>2026-03-22T10:32:44.287Z</time></trkpt><trkpt lat="44.4792591" lon="10.8524486"><ele>220.0</ele><time>2026-03-22T10:32:45.279Z</time></trkpt><trkpt lat="44.4790838" lon="10.8522029"><ele>220.0</ele><time>2026-03-22T10:32:46.273Z</time></trkpt><trkpt lat="44.4789077" lon="10.8519614"><ele>221.5</ele><time>2026-03-22T10:32:47.286Z</time></trkpt><trkpt lat="44.478734" lon="10.851726"><ele>223.0</ele><time>2026-03-22T10:32:48.274Z</time></trkpt><trkpt lat="44.4785582" lon="10.8514923"><ele>223.0</ele><time>2026-03-22T10:32:49.281Z</time></trkpt><trkpt lat="44.4783785" lon="10.8512686"><ele>223.0</ele><time>2026-03-22T10:32:50.289Z</time></trkpt><trkpt lat="44.4781922" lon="10.8510661"><ele>226.0</ele><time>2026-03-22T10:32:51.286Z</time></trkpt><trkpt lat="44.4779992" lon="10.8508904"><ele>229.0</ele><time>2026-03-22T10:32:52.291Z</time></trkpt><trkpt lat="44.4778023" lon="10.8507364"><ele>229.0</ele><time>2026-03-22T10:32:53.285Z</time></trkpt><trkpt lat="44.4776019" lon="10.8505903"><ele>229.0</ele><time>2026-03-22T10:32:54.287Z</time></trkpt><trkpt lat="44.4774014" lon="10.8504458"><ele>229.0</ele><time>2026-03-22T10:32:55.283Z</time></trkpt><trkpt lat="44.4772003" lon="10.8503006"><ele>229.0</ele><time>2026-03-22T10:32:56.278Z</time></trkpt><trkpt lat="44.477" lon="10.8501512"><ele>229.33333333333331</ele><time>2026-03-22T10:32:57.291Z</time></trkpt><trkpt lat="44.4768033" lon="10.8499992"><ele>229.66666666666669</ele><time>2026-03-22T10:32:58.291Z</time></trkpt><trkpt lat="44.4766079" lon="10.8498469"><ele>230.0</ele><time>2026-03-22T10:32:59.288Z</time></trkpt><trkpt lat="44.4764146" lon="10.8496925"><ele>230.0</ele><time>2026-03-22T10:33:00.284Z</time></trkpt><trkpt lat="44.4762224" lon="10.8495404"><ele>230.0</ele><time>2026-03-22T10:33:01.27Z</time></trkpt><trkpt lat="44.4760286" lon="10.849391"><ele>230.0</ele><time>2026-03-22T10:33:02.274Z</time></trkpt><trkpt lat="44.4758326" lon="10.8492435"><ele>230.5</ele><time>2026-03-22T10:33:03.278Z</time></trkpt><trkpt lat="44.475632" lon="10.8490937"><ele>231.0</ele><time>2026-03-22T10:33:04.287Z</time></trkpt><trkpt lat="44.4754292" lon="10.8489423"><ele>231.0</ele><time>2026-03-22T10:33:05.272Z</time></trkpt><trkpt lat="44.4752215" lon="10.8487848"><ele>231.0</ele><time>2026-03-22T10:33:06.288Z</time></trkpt><trkpt lat="44.4750149" lon="10.8486264"><ele>231.0</ele><time>2026-03-22T10:33:07.291Z</time></trkpt><trkpt lat="44.4748108" lon="10.848468"><ele>231.0</ele><time>2026-03-22T10:33:08.282Z</time></trkpt><trkpt lat="44.4746082" lon="10.8483092"><ele>230.5</ele><time>2026-03-22T10:33:09.29Z</time></trkpt><trkpt lat="44.4744093" lon="10.848155"><ele>230.0</ele><time>2026-03-22T10:33:10.28Z</time></trkpt><trkpt lat="44.47421" lon="10.8480047"><ele>230.0</ele><time>2026-03-22T10:33:11.281Z</time></trkpt><trkpt lat="44.474013" lon="10.8478572"><ele>230.0</ele><time>2026-03-22T10:33:12.28Z</time></trkpt><trkpt lat="44.4738178" lon="10.8477097"><ele>230.0</ele><time>2026-03-22T10:33:13.288Z</time></trkpt><trkpt lat="44.4736248" lon="10.8475625"><ele>232.66666666666669</ele><time>2026-03-22T10:33:14.289Z</time></trkpt><trkpt lat="44.4734331" lon="10.8474156"><ele>235.33333333333331</ele><time>2026-03-22T10:33:15.285Z</time></trkpt><trkpt lat="44.4732425" lon="10.8472669"><ele>238.0</ele><time>2026-03-22T10:33:16.277Z</time></trkpt><trkpt lat="44.4730531" lon="10.8471111"><ele>237.66666666666666</ele><time>2026-03-22T10:33:17.29Z</time></trkpt><trkpt lat="44.4728693" lon="10.8469449"><ele>237.33333333333331</ele><time>2026-03-22T10:33:18.287Z</time></trkpt><trkpt lat="44.4726936" lon="10.8467602"><ele>237.0</ele><time>2026-03-22T10:33:19.281Z</time></trkpt><trkpt lat="44.4725268" lon="10.8465575"><ele>236.33333333333331</ele><time>2026-03-22T10:33:20.28Z</time></trkpt><trkpt lat="44.472367" lon="10.8463439"><ele>235.66666666666666</ele><time>2026-03-22T10:33:21.278Z</time></trkpt><trkpt lat="44.4722086" lon="10.8461269"><ele>235.0</ele><time>2026-03-22T10:33:22.291Z</time></trkpt><trkpt lat="44.4720516" lon="10.8459143"><ele>235.0</ele><time>2026-03-22T10:33:23.272Z</time></trkpt><trkpt lat="44.4718928" lon="10.8457004"><ele>235.0</ele><time>2026-03-22T10:33:24.283Z</time></trkpt><trkpt lat="44.4717359" lon="10.8454889"><ele>235.0</ele><time>2026-03-22T10:33:25.272Z</time></trkpt><trkpt lat="44.4715777" lon="10.8452769"><ele>236.33333333333331</ele><time>2026-03-22T10:33:26.28Z</time></trkpt><trkpt lat="44.4714191" lon="10.8450721"><ele>237.66666666666669</ele><time>2026-03-22T10:33:27.271Z</time></trkpt><trkpt lat="44.4712586" lon="10.8448584"><ele>239.0</ele><time>2026-03-22T10:33:28.291Z</time></trkpt><trkpt lat="44.4710965" lon="10.8446514"><ele>239.0</ele><time>2026-03-22T10:33:29.285Z</time></trkpt><trkpt lat="44.4709331" lon="10.8444438"><ele>239.0</ele><time>2026-03-22T10:33:30.291Z</time></trkpt><trkpt lat="44.4707698" lon="10.8442345"><ele>239.0</ele><time>2026-03-22T10:33:31.272Z</time></trkpt><trkpt lat="44.4706027" lon="10.8440186"><ele>240.5</ele><time>2026-03-22T10:33:32.287Z</time></trkpt><trkpt lat="44.4704377" lon="10.8437988"><ele>242.0</ele><time>2026-03-22T10:33:33.289Z</time></trkpt><trkpt lat="44.4702731" lon="10.843577"><ele>243.5</ele><time>2026-03-22T10:33:34.283Z</time></trkpt><trkpt lat="44.4701074" lon="10.843355"><ele>245.0</ele><time>2026-03-22T10:33:35.284Z</time></trkpt><trkpt lat="44.4699404" lon="10.8431362"><ele>245.0</ele><time>2026-03-22T10:33:36.289Z</time></trkpt><trkpt lat="44.4697726" lon="10.8429199"><ele>245.0</ele><time>2026-03-22T10:33:37.289Z</time></trkpt><trkpt lat="44.4696046" lon="10.8427025"><ele>244.5</ele><time>2026-03-22T10:33:38.284Z</time></trkpt><trkpt lat="44.4694366" lon="10.842483"><ele>244.0</ele><time>2026-03-22T10:33:39.291Z</time></trkpt><trkpt lat="44.4692682" lon="10.8422633"><ele>244.0</ele><time>2026-03-22T10:33:40.288Z</time></trkpt><trkpt lat="44.4691004" lon="10.8420401"><ele>244.0</ele><time>2026-03-22T10:33:41.277Z</time></trkpt><trkpt lat="44.4689326" lon="10.8418099"><ele>244.5</ele><time>2026-03-22T10:33:42.285Z</time></trkpt><trkpt lat="44.4687686" lon="10.8415733"><ele>245.0</ele><time>2026-03-22T10:33:43.291Z</time></trkpt><trkpt lat="44.4686084" lon="10.8413332"><ele>245.0</ele><time>2026-03-22T10:33:44.27Z</time></trkpt><trkpt lat="44.4684457" lon="10.8410885"><ele>245.0</ele><time>2026-03-22T10:33:45.285Z</time></trkpt><trkpt lat="44.4682831" lon="10.8408477"><ele>246.0</ele><time>2026-03-22T10:33:46.278Z</time></trkpt><trkpt lat="44.4681173" lon="10.8406053"><ele>247.0</ele><time>2026-03-22T10:33:47.284Z</time></trkpt><trkpt lat="44.467952" lon="10.8403641"><ele>247.5</ele><time>2026-03-22T10:33:48.272Z</time></trkpt><trkpt lat="44.4677847" lon="10.8401203"><ele>248.0</ele><time>2026-03-22T10:33:49.291Z</time></trkpt><trkpt lat="44.4676193" lon="10.8398799"><ele>248.0</ele><time>2026-03-22T10:33:50.282Z</time></trkpt><trkpt lat="44.4674519" lon="10.8396395"><ele>248.0</ele><time>2026-03-22T10:33:51.277Z</time></trkpt><trkpt lat="44.4672808" lon="10.8394044"><ele>248.0</ele><time>2026-03-22T10:33:52.271Z</time></trkpt><trkpt lat="44.4671014" lon="10.8391791"><ele>248.0</ele><time>2026-03-22T10:33:53.284Z</time></trkpt><trkpt lat="44.4669111" lon="10.8389747"><ele>248.0</ele><time>2026-03-22T10:33:54.276Z</time></trkpt><trkpt lat="44.4667072" lon="10.8387932"><ele>248.0</ele><time>2026-03-22T10:33:55.269Z</time></trkpt><trkpt lat="44.4664912" lon="10.8386378"><ele>249.0</ele><time>2026-03-22T10:33:56.28Z</time></trkpt><trkpt lat="44.466269" lon="10.8385058"><ele>250.0</ele><time>2026-03-22T10:33:57.285Z</time></trkpt><trkpt lat="44.4660441" lon="10.8383893"><ele>250.5</ele><time>2026-03-22T10:33:58.282Z</time></trkpt><trkpt lat="44.4658179" lon="10.838281"><ele>251.0</ele><time>2026-03-22T10:33:59.286Z</time></trkpt><trkpt lat="44.4655996" lon="10.8381793"><ele>251.0</ele><time>2026-03-22T10:34:00.283Z</time></trkpt><trkpt lat="44.4653917" lon="10.8380791"><ele>251.0</ele><time>2026-03-22T10:34:01.28Z</time></trkpt><trkpt lat="44.4651903" lon="10.83798"><ele>251.0</ele><time>2026-03-22T10:34:02.281Z</time></trkpt><trkpt lat="44.4649952" lon="10.8378841"><ele>251.0</ele><time>2026-03-22T10:34:03.285Z</time></trkpt><trkpt lat="44.4648102" lon="10.8377914"><ele>251.0</ele><time>2026-03-22T10:34:04.288Z</time></trkpt><trkpt lat="44.464635" lon="10.8377031"><ele>251.0</ele><time>2026-03-22T10:34:05.287Z</time></trkpt><trkpt lat="44.4644688" lon="10.8376192"><ele>253.0</ele><time>2026-03-22T10:34:06.272Z</time></trkpt><trkpt lat="44.4643047" lon="10.8375369"><ele>255.0</ele><time>2026-03-22T10:34:07.289Z</time></trkpt><trkpt lat="44.4641439" lon="10.8374571"><ele>257.0</ele><time>2026-03-22T10:34:08.293Z</time></trkpt><trkpt lat="44.4639866" lon="10.8373783"><ele>257.0</ele><time>2026-03-22T10:34:09.285Z</time></trkpt><trkpt lat="44.4638271" lon="10.8372968"><ele>257.0</ele><time>2026-03-22T10:34:10.287Z</time></trkpt><trkpt lat="44.4636657" lon="10.8372118"><ele>257.0</ele><time>2026-03-22T10:34:11.276Z</time></trkpt><trkpt lat="44.4635004" lon="10.8371205"><ele>257.33333333333337</ele><time>2026-03-22T10:34:12.286Z</time></trkpt><trkpt lat="44.4633397" lon="10.8370134"><ele>257.6666666666667</ele><time>2026-03-22T10:34:13.276Z</time></trkpt><trkpt lat="44.463186" lon="10.8368831"><ele>258.0</ele><time>2026-03-22T10:34:14.285Z</time></trkpt><trkpt lat="44.4630456" lon="10.8367271"><ele>258.6666666666667</ele><time>2026-03-22T10:34:15.287Z</time></trkpt><trkpt lat="44.4629165" lon="10.8365492"><ele>259.33333333333337</ele><time>2026-03-22T10:34:16.285Z</time></trkpt><trkpt lat="44.462793" lon="10.8363504"><ele>260.0</ele><time>2026-03-22T10:34:17.284Z</time></trkpt><trkpt lat="44.4626715" lon="10.8361343"><ele>260.6666666666667</ele><time>2026-03-22T10:34:18.271Z</time></trkpt><trkpt lat="44.4625508" lon="10.8359025"><ele>261.3333333333333</ele><time>2026-03-22T10:34:19.275Z</time></trkpt><trkpt lat="44.4624321" lon="10.8356686"><ele>262.0</ele><time>2026-03-22T10:34:20.278Z</time></trkpt><trkpt lat="44.4623151" lon="10.8354395"><ele>262.0</ele><time>2026-03-22T10:34:21.277Z</time></trkpt><trkpt lat="44.4621976" lon="10.8352187"><ele>262.0</ele><time>2026-03-22T10:34:22.286Z</time></trkpt><trkpt lat="44.4620861" lon="10.8350106"><ele>262.0</ele><time>2026-03-22T10:34:23.284Z</time></trkpt><trkpt lat="44.4619817" lon="10.8348149"><ele>262.0</ele><time>2026-03-22T10:34:24.283Z</time></trkpt><trkpt lat="44.4618836" lon="10.8346303"><ele>262.0</ele><time>2026-03-22T10:34:25.285Z</time></trkpt><trkpt lat="44.4617887" lon="10.834453"><ele>262.0</ele><time>2026-03-22T10:34:26.29Z</time></trkpt><trkpt lat="44.4616922" lon="10.834283"><ele>262.3333333333333</ele><time>2026-03-22T10:34:27.281Z</time></trkpt><trkpt lat="44.4615913" lon="10.8341046"><ele>262.6666666666667</ele><time>2026-03-22T10:34:28.287Z</time></trkpt><trkpt lat="44.4614918" lon="10.8339225"><ele>263.0</ele><time>2026-03-22T10:34:29.274Z</time></trkpt><trkpt lat="44.4613904" lon="10.8337362"><ele>263.0</ele><time>2026-03-22T10:34:30.285Z</time></trkpt><trkpt lat="44.4612866" lon="10.83355"><ele>263.0</ele><time>2026-03-22T10:34:31.289Z</time></trkpt><trkpt lat="44.4611842" lon="10.8333609"><ele>263.0</ele><time>2026-03-22T10:34:32.289Z</time></trkpt><trkpt lat="44.4610835" lon="10.833174"><ele>264.33333333333337</ele><time>2026-03-22T10:34:33.277Z</time></trkpt><trkpt lat="44.4609802" lon="10.8329901"><ele>265.6666666666667</ele><time>2026-03-22T10:34:34.286Z</time></trkpt><trkpt lat="44.4608722" lon="10.8328153"><ele>267.0</ele><time>2026-03-22T10:34:35.289Z</time></trkpt><trkpt lat="44.4607539" lon="10.8326514"><ele>267.0</ele><time>2026-03-22T10:34:36.29Z</time></trkpt><trkpt lat="44.4606232" lon="10.832502"><ele>267.0</ele><time>2026-03-22T10:34:37.283Z</time></trkpt><trkpt lat="44.4604825" lon="10.8323672"><ele>267.0</ele><time>2026-03-22T10:34:38.29Z</time></trkpt><trkpt lat="44.460335" lon="10.8322512"><ele>267.0</ele><time>2026-03-22T10:34:39.284Z</time></trkpt><trkpt lat="44.4601798" lon="10.8321614"><ele>267.0</ele><time>2026-03-22T10:34:40.276Z</time></trkpt><trkpt lat="44.4600195" lon="10.8320962"><ele>267.0</ele><time>2026-03-22T10:34:41.291Z</time></trkpt><trkpt lat="44.4598595" lon="10.8320508"><ele>267.0</ele><time>2026-03-22T10:34:42.274Z</time></trkpt><trkpt lat="44.4596954" lon="10.8320229"><ele>267.0</ele><time>2026-03-22T10:34:43.276Z</time></trkpt><trkpt lat="44.4595333" lon="10.8320127"><ele>267.0</ele><time>2026-03-22T10:34:44.292Z</time></trkpt><trkpt lat="44.4593766" lon="10.8320125"><ele>268.3333333333333</ele><time>2026-03-22T10:34:45.291Z</time></trkpt><trkpt lat="44.4592134" lon="10.8320161"><ele>269.66666666666663</ele><time>2026-03-22T10:34:46.282Z</time></trkpt><trkpt lat="44.459032" lon="10.832026"><ele>271.0</ele><time>2026-03-22T10:34:47.29Z</time></trkpt><trkpt lat="44.4588305" lon="10.832047"><ele>274.0</ele><time>2026-03-22T10:34:48.286Z</time></trkpt><trkpt lat="44.4586103" lon="10.8320803"><ele>277.0</ele><time>2026-03-22T10:34:49.284Z</time></trkpt><trkpt lat="44.4583845" lon="10.8321335"><ele>277.0</ele><time>2026-03-22T10:34:50.288Z</time></trkpt><trkpt lat="44.4581646" lon="10.8322147"><ele>277.0</ele><time>2026-03-22T10:34:51.282Z</time></trkpt><trkpt lat="44.45795" lon="10.8323256"><ele>278.5</ele><time>2026-03-22T10:34:52.284Z</time></trkpt><trkpt lat="44.4577355" lon="10.8324698"><ele>280.0</ele><time>2026-03-22T10:34:53.281Z</time></trkpt><trkpt lat="44.4575107" lon="10.8326312"><ele>280.0</ele><time>2026-03-22T10:34:54.293Z</time></trkpt><trkpt lat="44.4572701" lon="10.8327986"><ele>280.0</ele><time>2026-03-22T10:34:55.283Z</time></trkpt><trkpt lat="44.4570078" lon="10.8329648"><ele>280.0</ele><time>2026-03-22T10:34:56.281Z</time></trkpt><trkpt lat="44.4567362" lon="10.8331208"><ele>280.0</ele><time>2026-03-22T10:34:57.294Z</time></trkpt><trkpt lat="44.456474" lon="10.8332726"><ele>281.5</ele><time>2026-03-22T10:34:58.297Z</time></trkpt><trkpt lat="44.456226" lon="10.8334228"><ele>283.0</ele><time>2026-03-22T10:34:59.271Z</time></trkpt><trkpt lat="44.4559805" lon="10.8335647"><ele>283.0</ele><time>2026-03-22T10:35:00.271Z</time></trkpt><trkpt lat="44.4557365" lon="10.8336865"><ele>283.0</ele><time>2026-03-22T10:35:01.278Z</time></trkpt><trkpt lat="44.4554923" lon="10.8337868"><ele>285.0</ele><time>2026-03-22T10:35:02.286Z</time></trkpt><trkpt lat="44.455247" lon="10.8338646"><ele>287.0</ele><time>2026-03-22T10:35:03.282Z</time></trkpt><trkpt lat="44.4549987" lon="10.8339306"><ele>287.0</ele><time>2026-03-22T10:35:04.287Z</time></trkpt><trkpt lat="44.454749" lon="10.8339919"><ele>287.0</ele><time>2026-03-22T10:35:05.273Z</time></trkpt><trkpt lat="44.454491" lon="10.8340489"><ele>289.5</ele><time>2026-03-22T10:35:06.279Z</time></trkpt><trkpt lat="44.4542252" lon="10.8341007"><ele>292.0</ele><time>2026-03-22T10:35:07.291Z</time></trkpt><trkpt lat="44.4539537" lon="10.8341553"><ele>295.0</ele><time>2026-03-22T10:35:08.289Z</time></trkpt><trkpt lat="44.4536741" lon="10.8342142"><ele>298.0</ele><time>2026-03-22T10:35:09.289Z</time></trkpt><trkpt lat="44.4533904" lon="10.8342756"><ele>299.5</ele><time>2026-03-22T10:35:10.288Z</time></trkpt><trkpt lat="44.4531089" lon="10.8343387"><ele>301.0</ele><time>2026-03-22T10:35:11.29Z</time></trkpt><trkpt lat="44.4528278" lon="10.8344051"><ele>301.0</ele><time>2026-03-22T10:35:12.279Z</time></trkpt><trkpt lat="44.4525384" lon="10.8344715"><ele>301.0</ele><time>2026-03-22T10:35:13.275Z</time></trkpt><trkpt lat="44.4522438" lon="10.8345349"><ele>301.0</ele><time>2026-03-22T10:35:14.271Z</time></trkpt><trkpt lat="44.4519436" lon="10.8345922"><ele>301.0</ele><time>2026-03-22T10:35:15.279Z</time></trkpt><trkpt lat="44.4516408" lon="10.834641"><ele>301.0</ele><time>2026-03-22T10:35:16.286Z</time></trkpt><trkpt lat="44.4513382" lon="10.83468"><ele>301.0</ele><time>2026-03-22T10:35:17.282Z</time></trkpt><trkpt lat="44.4510355" lon="10.8347114"><ele>302.5</ele><time>2026-03-22T10:35:18.28Z</time></trkpt><trkpt lat="44.4507332" lon="10.8347389"><ele>304.0</ele><time>2026-03-22T10:35:19.286Z</time></trkpt><trkpt lat="44.4504348" lon="10.8347654"><ele>306.0</ele><time>2026-03-22T10:35:20.274Z</time></trkpt><trkpt lat="44.4501384" lon="10.8347947"><ele>308.0</ele><time>2026-03-22T10:35:21.273Z</time></trkpt><trkpt lat="44.4498508" lon="10.8348176"><ele>311.5</ele><time>2026-03-22T10:35:22.27Z</time></trkpt><trkpt lat="44.4495717" lon="10.8348269"><ele>315.0</ele><time>2026-03-22T10:35:23.274Z</time></trkpt><trkpt lat="44.4492974" lon="10.834802"><ele>315.0</ele><time>2026-03-22T10:35:24.281Z</time></trkpt><trkpt lat="44.4490273" lon="10.8347361"><ele>315.0</ele><time>2026-03-22T10:35:25.272Z</time></trkpt><trkpt lat="44.448758" lon="10.8346279"><ele>316.5</ele><time>2026-03-22T10:35:26.289Z</time></trkpt><trkpt lat="44.4484937" lon="10.8344888"><ele>318.0</ele><time>2026-03-22T10:35:27.29Z</time></trkpt><trkpt lat="44.4482265" lon="10.8343661"><ele>323.0</ele><time>2026-03-22T10:35:28.293Z</time></trkpt><trkpt lat="44.4479524" lon="10.8342626"><ele>328.0</ele><time>2026-03-22T10:35:29.291Z</time></trkpt><trkpt lat="44.4476696" lon="10.8341876"><ele>328.0</ele><time>2026-03-22T10:35:30.29Z</time></trkpt><trkpt lat="44.4473817" lon="10.8341412"><ele>328.0</ele><time>2026-03-22T10:35:31.292Z</time></trkpt><trkpt lat="44.4470978" lon="10.834108"><ele>330.0</ele><time>2026-03-22T10:35:32.297Z</time></trkpt><trkpt lat="44.4468237" lon="10.8340822"><ele>332.0</ele><time>2026-03-22T10:35:33.278Z</time></trkpt><trkpt lat="44.4465509" lon="10.8340718"><ele>335.0</ele><time>2026-03-22T10:35:34.294Z</time></trkpt><trkpt lat="44.4462833" lon="10.834093"><ele>338.0</ele><time>2026-03-22T10:35:35.285Z</time></trkpt><trkpt lat="44.4460188" lon="10.8341543"><ele>338.0</ele><time>2026-03-22T10:35:36.276Z</time></trkpt><trkpt lat="44.4457617" lon="10.8342689"><ele>338.0</ele><time>2026-03-22T10:35:37.273Z</time></trkpt><trkpt lat="44.4455113" lon="10.8344253"><ele>337.5</ele><time>2026-03-22T10:35:38.277Z</time></trkpt><trkpt lat="44.445263" lon="10.8346202"><ele>337.0</ele><time>2026-03-22T10:35:39.283Z</time></trkpt><trkpt lat="44.4450133" lon="10.8348039"><ele>337.0</ele><time>2026-03-22T10:35:40.28Z</time></trkpt><trkpt lat="44.4447599" lon="10.8349743"><ele>337.0</ele><time>2026-03-22T10:35:41.278Z</time></trkpt><trkpt lat="44.4445063" lon="10.835124"><ele>341.5</ele><time>2026-03-22T10:35:42.274Z</time></trkpt><trkpt lat="44.4442494" lon="10.8352454"><ele>346.0</ele><time>2026-03-22T10:35:43.278Z</time></trkpt><trkpt lat="44.443987" lon="10.8353245"><ele>348.0</ele><time>2026-03-22T10:35:44.28Z</time></trkpt><trkpt lat="44.4437222" lon="10.8353521"><ele>350.0</ele><time>2026-03-22T10:35:45.278Z</time></trkpt><trkpt lat="44.4434535" lon="10.8353253"><ele>350.0</ele><time>2026-03-22T10:35:46.291Z</time></trkpt><trkpt lat="44.4431862" lon="10.8352591"><ele>350.0</ele><time>2026-03-22T10:35:47.281Z</time></trkpt><trkpt lat="44.4429131" lon="10.8351523"><ele>349.5</ele><time>2026-03-22T10:35:48.289Z</time></trkpt><trkpt lat="44.4426377" lon="10.835035"><ele>349.0</ele><time>2026-03-22T10:35:49.29Z</time></trkpt><trkpt lat="44.4423563" lon="10.8349163"><ele>351.0</ele><time>2026-03-22T10:35:50.292Z</time></trkpt><trkpt lat="44.4420714" lon="10.8348018"><ele>353.0</ele><time>2026-03-22T10:35:51.281Z</time></trkpt><trkpt lat="44.4417812" lon="10.834691"><ele>353.0</ele><time>2026-03-22T10:35:52.279Z</time></trkpt><trkpt lat="44.4414887" lon="10.83458"><ele>353.0</ele><time>2026-03-22T10:35:53.287Z</time></trkpt><trkpt lat="44.4411974" lon="10.8344698"><ele>355.5</ele><time>2026-03-22T10:35:54.283Z</time></trkpt><trkpt lat="44.4409055" lon="10.834361"><ele>358.0</ele><time>2026-03-22T10:35:55.287Z</time></trkpt><trkpt lat="44.4406146" lon="10.8342551"><ele>359.0</ele><time>2026-03-22T10:35:56.287Z</time></trkpt><trkpt lat="44.440324" lon="10.8341487"><ele>360.0</ele><time>2026-03-22T10:35:57.289Z</time></trkpt><trkpt lat="44.4400335" lon="10.8340424"><ele>360.0</ele><time>2026-03-22T10:35:58.279Z</time></trkpt><trkpt lat="44.4397389" lon="10.8339358"><ele>360.0</ele><time>2026-03-22T10:35:59.29Z</time></trkpt><trkpt lat="44.4394454" lon="10.8338308"><ele>362.0</ele><time>2026-03-22T10:36:00.293Z</time></trkpt><trkpt lat="44.4391543" lon="10.8337269"><ele>364.0</ele><time>2026-03-22T10:36:01.274Z</time></trkpt><trkpt lat="44.4388611" lon="10.8336213"><ele>366.5</ele><time>2026-03-22T10:36:02.279Z</time></trkpt><trkpt lat="44.4385709" lon="10.8335163"><ele>369.0</ele><time>2026-03-22T10:36:03.293Z</time></trkpt><trkpt lat="44.4382859" lon="10.8334148"><ele>369.0</ele><time>2026-03-22T10:36:04.283Z</time></trkpt><trkpt lat="44.4380006" lon="10.8333155"><ele>369.0</ele><time>2026-03-22T10:36:05.292Z</time></trkpt><trkpt lat="44.4377237" lon="10.8332216"><ele>372.0</ele><time>2026-03-22T10:36:06.286Z</time></trkpt><trkpt lat="44.4374534" lon="10.833139"><ele>375.0</ele><time>2026-03-22T10:36:07.282Z</time></trkpt><trkpt lat="44.437182" lon="10.8330858"><ele>379.0</ele><time>2026-03-22T10:36:08.278Z</time></trkpt><trkpt lat="44.4369039" lon="10.8330711"><ele>383.0</ele><time>2026-03-22T10:36:09.291Z</time></trkpt><trkpt lat="44.436624" lon="10.8330859"><ele>383.0</ele><time>2026-03-22T10:36:10.28Z</time></trkpt><trkpt lat="44.4363395" lon="10.8331079"><ele>383.0</ele><time>2026-03-22T10:36:11.289Z</time></trkpt><trkpt lat="44.4360586" lon="10.8331278"><ele>385.5</ele><time>2026-03-22T10:36:12.295Z</time></trkpt><trkpt lat="44.4357812" lon="10.8331472"><ele>388.0</ele><time>2026-03-22T10:36:13.296Z</time></trkpt><trkpt lat="44.4355075" lon="10.8331782"><ele>390.0</ele><time>2026-03-22T10:36:14.275Z</time></trkpt><trkpt lat="44.4352326" lon="10.8332439"><ele>392.0</ele><time>2026-03-22T10:36:15.287Z</time></trkpt><trkpt lat="44.4349673" lon="10.8333577"><ele>391.5</ele><time>2026-03-22T10:36:16.277Z</time></trkpt><trkpt lat="44.4347052" lon="10.8335109"><ele>391.0</ele><time>2026-03-22T10:36:17.29Z</time></trkpt><trkpt lat="44.4344536" lon="10.8337016"><ele>393.5</ele><time>2026-03-22T10:36:18.272Z</time></trkpt><trkpt lat="44.4342105" lon="10.8339287"><ele>396.0</ele><time>2026-03-22T10:36:19.281Z</time></trkpt><trkpt lat="44.4339812" lon="10.8341851"><ele>401.5</ele><time>2026-03-22T10:36:20.289Z</time></trkpt><trkpt lat="44.4337651" lon="10.8344648"><ele>407.0</ele><time>2026-03-22T10:36:21.287Z</time></trkpt><trkpt lat="44.4335569" lon="10.8347595"><ele>407.0</ele><time>2026-03-22T10:36:22.287Z</time></trkpt><trkpt lat="44.433351" lon="10.8350555"><ele>407.0</ele><time>2026-03-22T10:36:23.291Z</time></trkpt><trkpt lat="44.4331451" lon="10.8353448"><ele>412.0</ele><time>2026-03-22T10:36:24.29Z</time></trkpt><trkpt lat="44.4329356" lon="10.8356227"><ele>417.0</ele><time>2026-03-22T10:36:25.283Z</time></trkpt><trkpt lat="44.4327217" lon="10.8358936"><ele>414.0</ele><time>2026-03-22T10:36:26.29Z</time></trkpt><trkpt lat="44.4325073" lon="10.8361532"><ele>411.0</ele><time>2026-03-22T10:36:27.286Z</time></trkpt><trkpt lat="44.4322944" lon="10.8364071"><ele>414.5</ele><time>2026-03-22T10:36:28.283Z</time></trkpt><trkpt lat="44.432084" lon="10.8366525"><ele>418.0</ele><time>2026-03-22T10:36:29.281Z</time></trkpt><trkpt lat="44.4318811" lon="10.8368856"><ele>418.0</ele><time>2026-03-22T10:36:30.279Z</time></trkpt><trkpt lat="44.4316854" lon="10.8371107"><ele>418.0</ele><time>2026-03-22T10:36:31.289Z</time></trkpt><trkpt lat="44.431495" lon="10.8373274"><ele>418.0</ele><time>2026-03-22T10:36:32.287Z</time></trkpt><trkpt lat="44.4313106" lon="10.837531"><ele>418.0</ele><time>2026-03-22T10:36:33.286Z</time></trkpt><trkpt lat="44.4311367" lon="10.8377212"><ele>421.0</ele><time>2026-03-22T10:36:34.285Z</time></trkpt><trkpt lat="44.4309676" lon="10.8379013"><ele>424.0</ele><time>2026-03-22T10:36:35.289Z</time></trkpt><trkpt lat="44.4308042" lon="10.8380833"><ele>427.0</ele><time>2026-03-22T10:36:36.29Z</time></trkpt><trkpt lat="44.4306464" lon="10.8382771"><ele>427.0</ele><time>2026-03-22T10:36:37.294Z</time></trkpt><trkpt lat="44.4304863" lon="10.8384817"><ele>427.0</ele><time>2026-03-22T10:36:38.287Z</time></trkpt><trkpt lat="44.4303145" lon="10.8386945"><ele>427.0</ele><time>2026-03-22T10:36:39.272Z</time></trkpt><trkpt lat="44.4301282" lon="10.8389178"><ele>428.5</ele><time>2026-03-22T10:36:40.282Z</time></trkpt><trkpt lat="44.42993" lon="10.8391432"><ele>430.0</ele><time>2026-03-22T10:36:41.281Z</time></trkpt><trkpt lat="44.4297202" lon="10.8393679"><ele>433.5</ele><time>2026-03-22T10:36:42.286Z</time></trkpt><trkpt lat="44.4295095" lon="10.8395952"><ele>437.0</ele><time>2026-03-22T10:36:43.273Z</time></trkpt><trkpt lat="44.4292973" lon="10.8398371"><ele>437.0</ele><time>2026-03-22T10:36:44.28Z</time></trkpt><trkpt lat="44.4290835" lon="10.8400865"><ele>437.0</ele><time>2026-03-22T10:36:45.277Z</time></trkpt><trkpt lat="44.4288645" lon="10.84034"><ele>441.0</ele><time>2026-03-22T10:36:46.281Z</time></trkpt><trkpt lat="44.4286417" lon="10.8405962"><ele>445.0</ele><time>2026-03-22T10:36:47.29Z</time></trkpt><trkpt lat="44.4284178" lon="10.8408529"><ele>444.0</ele><time>2026-03-22T10:36:48.296Z</time></trkpt><trkpt lat="44.4281957" lon="10.8411089"><ele>443.0</ele><time>2026-03-22T10:36:49.286Z</time></trkpt><trkpt lat="44.4279738" lon="10.8413661"><ele>446.5</ele><time>2026-03-22T10:36:50.289Z</time></trkpt><trkpt lat="44.4277535" lon="10.8416203"><ele>450.0</ele><time>2026-03-22T10:36:51.287Z</time></trkpt><trkpt lat="44.4275342" lon="10.8418641"><ele>451.5</ele><time>2026-03-22T10:36:52.276Z</time></trkpt><trkpt lat="44.42731" lon="10.842091"><ele>453.0</ele><time>2026-03-22T10:36:53.279Z</time></trkpt><trkpt lat="44.4270787" lon="10.8422958"><ele>456.5</ele><time>2026-03-22T10:36:54.275Z</time></trkpt><trkpt lat="44.4268326" lon="10.8424755"><ele>460.0</ele><time>2026-03-22T10:36:55.278Z</time></trkpt><trkpt lat="44.4265724" lon="10.8426284"><ele>463.5</ele><time>2026-03-22T10:36:56.28Z</time></trkpt><trkpt lat="44.4263005" lon="10.8427606"><ele>467.0</ele><time>2026-03-22T10:36:57.28Z</time></trkpt><trkpt lat="44.4260221" lon="10.8428848"><ele>467.0</ele><time>2026-03-22T10:36:58.278Z</time></trkpt><trkpt lat="44.4257412" lon="10.8430092"><ele>467.0</ele><time>2026-03-22T10:36:59.275Z</time></trkpt><trkpt lat="44.4254599" lon="10.8431406"><ele>467.5</ele><time>2026-03-22T10:37:00.287Z</time></trkpt><trkpt lat="44.4251855" lon="10.843286"><ele>468.0</ele><time>2026-03-22T10:37:01.285Z</time></trkpt><trkpt lat="44.4249209" lon="10.8434621"><ele>469.5</ele><time>2026-03-22T10:37:02.277Z</time></trkpt><trkpt lat="44.424668" lon="10.8436761"><ele>471.0</ele><time>2026-03-22T10:37:03.274Z</time></trkpt><trkpt lat="44.4244275" lon="10.8439279"><ele>472.5</ele><time>2026-03-22T10:37:04.292Z</time></trkpt><trkpt lat="44.4242052" lon="10.8442114"><ele>474.0</ele><time>2026-03-22T10:37:05.288Z</time></trkpt><trkpt lat="44.4239947" lon="10.8445227"><ele>477.5</ele><time>2026-03-22T10:37:06.29Z</time></trkpt><trkpt lat="44.4237933" lon="10.8448475"><ele>481.0</ele><time>2026-03-22T10:37:07.285Z</time></trkpt><trkpt lat="44.4235932" lon="10.8451701"><ele>481.0</ele><time>2026-03-22T10:37:08.275Z</time></trkpt><trkpt lat="44.4233932" lon="10.8454884"><ele>481.0</ele><time>2026-03-22T10:37:09.281Z</time></trkpt><trkpt lat="44.423198" lon="10.8457991"><ele>482.5</ele><time>2026-03-22T10:37:10.29Z</time></trkpt><trkpt lat="44.423012" lon="10.8460915"><ele>484.0</ele><time>2026-03-22T10:37:11.288Z</time></trkpt><trkpt lat="44.4228311" lon="10.8463562"><ele>484.5</ele><time>2026-03-22T10:37:12.278Z</time></trkpt><trkpt lat="44.4226446" lon="10.846586"><ele>485.0</ele><time>2026-03-22T10:37:13.293Z</time></trkpt><trkpt lat="44.4224472" lon="10.8467789"><ele>486.0</ele><time>2026-03-22T10:37:14.291Z</time></trkpt><trkpt lat="44.4222354" lon="10.8469405"><ele>487.0</ele><time>2026-03-22T10:37:15.281Z</time></trkpt><trkpt lat="44.4220063" lon="10.8470609"><ele>489.5</ele><time>2026-03-22T10:37:16.277Z</time></trkpt><trkpt lat="44.4217667" lon="10.8471475"><ele>492.0</ele><time>2026-03-22T10:37:17.283Z</time></trkpt><trkpt lat="44.4215231" lon="10.8471935"><ele>496.5</ele><time>2026-03-22T10:37:18.271Z</time></trkpt><trkpt lat="44.4212739" lon="10.8471975"><ele>501.0</ele><time>2026-03-22T10:37:19.276Z</time></trkpt><trkpt lat="44.4210203" lon="10.8471354"><ele>501.0</ele><time>2026-03-22T10:37:20.289Z</time></trkpt><trkpt lat="44.4207632" lon="10.8470666"><ele>501.0</ele><time>2026-03-22T10:37:21.276Z</time></trkpt><trkpt lat="44.4204977" lon="10.846998"><ele>505.0</ele><time>2026-03-22T10:37:22.276Z</time></trkpt><trkpt lat="44.4202275" lon="10.8469335"><ele>509.0</ele><time>2026-03-22T10:37:23.287Z</time></trkpt><trkpt lat="44.4199577" lon="10.846875"><ele>509.0</ele><time>2026-03-22T10:37:24.277Z</time></trkpt><trkpt lat="44.4196833" lon="10.8468305"><ele>509.0</ele><time>2026-03-22T10:37:25.278Z</time></trkpt><trkpt lat="44.4194035" lon="10.8468106"><ele>513.0</ele><time>2026-03-22T10:37:26.274Z</time></trkpt><trkpt lat="44.4191196" lon="10.8467997"><ele>517.0</ele><time>2026-03-22T10:37:27.27Z</time></trkpt><trkpt lat="44.4188333" lon="10.8468175"><ele>515.5</ele><time>2026-03-22T10:37:28.278Z</time></trkpt><trkpt lat="44.4185547" lon="10.8468463"><ele>514.0</ele><time>2026-03-22T10:37:29.285Z</time></trkpt><trkpt lat="44.4182808" lon="10.8468766"><ele>514.0</ele><time>2026-03-22T10:37:30.295Z</time></trkpt><trkpt lat="44.4180158" lon="10.8469016"><ele>514.0</ele><time>2026-03-22T10:37:31.291Z</time></trkpt><trkpt lat="44.4177611" lon="10.8469219"><ele>515.0</ele><time>2026-03-22T10:37:32.286Z</time></trkpt><trkpt lat="44.4175174" lon="10.8469376"><ele>516.0</ele><time>2026-03-22T10:37:33.275Z</time></trkpt><trkpt lat="44.4172812" lon="10.8469482"><ele>518.0</ele><time>2026-03-22T10:37:34.271Z</time></trkpt><trkpt lat="44.4170491" lon="10.8469544"><ele>520.0</ele><time>2026-03-22T10:37:35.294Z</time></trkpt><trkpt lat="44.4168232" lon="10.8469581"><ele>520.0</ele><time>2026-03-22T10:37:36.285Z</time></trkpt><trkpt lat="44.4165988" lon="10.8469589"><ele>520.0</ele><time>2026-03-22T10:37:37.272Z</time></trkpt><trkpt lat="44.4163736" lon="10.8469591"><ele>521.3333333333334</ele><time>2026-03-22T10:37:38.288Z</time></trkpt><trkpt lat="44.4161515" lon="10.8469584"><ele>522.6666666666666</ele><time>2026-03-22T10:37:39.288Z</time></trkpt><trkpt lat="44.4159304" lon="10.8469553"><ele>524.0</ele><time>2026-03-22T10:37:40.277Z</time></trkpt><trkpt lat="44.41571" lon="10.8469525"><ele>524.0</ele><time>2026-03-22T10:37:41.29Z</time></trkpt><trkpt lat="44.4154946" lon="10.8469496"><ele>524.0</ele><time>2026-03-22T10:37:42.291Z</time></trkpt><trkpt lat="44.4152809" lon="10.8469457"><ele>524.0</ele><time>2026-03-22T10:37:43.278Z</time></trkpt><trkpt lat="44.4150655" lon="10.8469399"><ele>524.0</ele><time>2026-03-22T10:37:44.285Z</time></trkpt><trkpt lat="44.4148529" lon="10.8469309"><ele>524.0</ele><time>2026-03-22T10:37:45.29Z</time></trkpt><trkpt lat="44.414644" lon="10.8469186"><ele>524.0</ele><time>2026-03-22T10:37:46.277Z</time></trkpt><trkpt lat="44.4144321" lon="10.8468971"><ele>525.3333333333333</ele><time>2026-03-22T10:37:47.291Z</time></trkpt><trkpt lat="44.4142208" lon="10.8468595"><ele>526.6666666666666</ele><time>2026-03-22T10:37:48.277Z</time></trkpt><trkpt lat="44.4140078" lon="10.8467984"><ele>528.0</ele><time>2026-03-22T10:37:49.291Z</time></trkpt><trkpt lat="44.4138003" lon="10.8467144"><ele>532.3333333333334</ele><time>2026-03-22T10:37:50.288Z</time></trkpt><trkpt lat="44.4135972" lon="10.8466105"><ele>536.6666666666667</ele><time>2026-03-22T10:37:51.282Z</time></trkpt><trkpt lat="44.413397" lon="10.846489"><ele>541.0</ele><time>2026-03-22T10:37:52.288Z</time></trkpt><trkpt lat="44.4132011" lon="10.8463556"><ele>541.0</ele><time>2026-03-22T10:37:53.276Z</time></trkpt><trkpt lat="44.413005" lon="10.8462129"><ele>541.0</ele><time>2026-03-22T10:37:54.286Z</time></trkpt><trkpt lat="44.4128092" lon="10.8460653"><ele>541.0</ele><time>2026-03-22T10:37:55.287Z</time></trkpt><trkpt lat="44.4126093" lon="10.8459158"><ele>544.0</ele><time>2026-03-22T10:37:56.287Z</time></trkpt><trkpt lat="44.4124028" lon="10.8457672"><ele>547.0</ele><time>2026-03-22T10:37:57.272Z</time></trkpt><trkpt lat="44.4121843" lon="10.8456125"><ele>546.0</ele><time>2026-03-22T10:37:58.292Z</time></trkpt><trkpt lat="44.4119626" lon="10.8454569"><ele>545.0</ele><time>2026-03-22T10:37:59.287Z</time></trkpt><trkpt lat="44.4117394" lon="10.8452952"><ele>550.0</ele><time>2026-03-22T10:38:00.276Z</time></trkpt><trkpt lat="44.4115173" lon="10.8451261"><ele>555.0</ele><time>2026-03-22T10:38:01.292Z</time></trkpt><trkpt lat="44.4113037" lon="10.844951"><ele>555.5</ele><time>2026-03-22T10:38:02.299Z</time></trkpt><trkpt lat="44.4111008" lon="10.8447655"><ele>556.0</ele><time>2026-03-22T10:38:03.278Z</time></trkpt><trkpt lat="44.4109052" lon="10.8445631"><ele>556.0</ele><time>2026-03-22T10:38:04.282Z</time></trkpt><trkpt lat="44.4107197" lon="10.8443446"><ele>556.0</ele><time>2026-03-22T10:38:05.289Z</time></trkpt><trkpt lat="44.410545" lon="10.844113"><ele>559.5</ele><time>2026-03-22T10:38:06.278Z</time></trkpt><trkpt lat="44.4103733" lon="10.8438723"><ele>563.0</ele><time>2026-03-22T10:38:07.292Z</time></trkpt><trkpt lat="44.4101985" lon="10.8436329"><ele>565.5</ele><time>2026-03-22T10:38:08.274Z</time></trkpt><trkpt lat="44.4100114" lon="10.8433843"><ele>568.0</ele><time>2026-03-22T10:38:09.285Z</time></trkpt><trkpt lat="44.4098245" lon="10.8431254"><ele>571.5</ele><time>2026-03-22T10:38:10.291Z</time></trkpt><trkpt lat="44.4096445" lon="10.842864"><ele>575.0</ele><time>2026-03-22T10:38:11.28Z</time></trkpt><trkpt lat="44.4094682" lon="10.8426121"><ele>575.0</ele><time>2026-03-22T10:38:12.273Z</time></trkpt><trkpt lat="44.409298" lon="10.842373"><ele>575.0</ele><time>2026-03-22T10:38:13.275Z</time></trkpt><trkpt lat="44.4091356" lon="10.8421475"><ele>575.0</ele><time>2026-03-22T10:38:14.275Z</time></trkpt><trkpt lat="44.4089856" lon="10.8419312"><ele>575.0</ele><time>2026-03-22T10:38:15.279Z</time></trkpt><trkpt lat="44.4088404" lon="10.8417127"><ele>575.0</ele><time>2026-03-22T10:38:16.283Z</time></trkpt><trkpt lat="44.4087093" lon="10.8414946"><ele>577.3333333333333</ele><time>2026-03-22T10:38:17.289Z</time></trkpt><trkpt lat="44.4085969" lon="10.8412801"><ele>579.6666666666666</ele><time>2026-03-22T10:38:18.274Z</time></trkpt><trkpt lat="44.4085024" lon="10.8410645"><ele>582.0</ele><time>2026-03-22T10:38:19.288Z</time></trkpt><trkpt lat="44.4084228" lon="10.8408565"><ele>583.0</ele><time>2026-03-22T10:38:20.284Z</time></trkpt><trkpt lat="44.4083546" lon="10.8406536"><ele>584.0</ele><time>2026-03-22T10:38:21.271Z</time></trkpt><trkpt lat="44.4082955" lon="10.8404567"><ele>585.0</ele><time>2026-03-22T10:38:22.289Z</time></trkpt><trkpt lat="44.4082418" lon="10.8402676"><ele>587.75</ele><time>2026-03-22T10:38:23.291Z</time></trkpt><trkpt lat="44.4081888" lon="10.8400798"><ele>590.5</ele><time>2026-03-22T10:38:24.289Z</time></trkpt><trkpt lat="44.4081357" lon="10.839891"><ele>593.25</ele><time>2026-03-22T10:38:25.282Z</time></trkpt><trkpt lat="44.4080828" lon="10.8396981"><ele>596.0</ele><time>2026-03-22T10:38:26.275Z</time></trkpt><trkpt lat="44.4080339" lon="10.8395023"><ele>595.0</ele><time>2026-03-22T10:38:27.288Z</time></trkpt><trkpt lat="44.4079869" lon="10.8393049"><ele>594.0</ele><time>2026-03-22T10:38:28.287Z</time></trkpt><trkpt lat="44.4079453" lon="10.8391033"><ele>593.0</ele><time>2026-03-22T10:38:29.283Z</time></trkpt><trkpt lat="44.4079097" lon="10.8388973"><ele>592.6666666666666</ele><time>2026-03-22T10:38:30.28Z</time></trkpt><trkpt lat="44.4078831" lon="10.838688"><ele>592.3333333333334</ele><time>2026-03-22T10:38:31.29Z</time></trkpt><trkpt lat="44.407864" lon="10.8384797"><ele>592.0</ele><time>2026-03-22T10:38:32.289Z</time></trkpt><trkpt lat="44.4078482" lon="10.8382709"><ele>592.5</ele><time>2026-03-22T10:38:33.275Z</time></trkpt><trkpt lat="44.4078381" lon="10.8380641"><ele>593.0</ele><time>2026-03-22T10:38:34.286Z</time></trkpt><trkpt lat="44.4078386" lon="10.8378604"><ele>593.5</ele><time>2026-03-22T10:38:35.276Z</time></trkpt><trkpt lat="44.4078496" lon="10.8376575"><ele>594.0</ele><time>2026-03-22T10:38:36.287Z</time></trkpt><trkpt lat="44.4078662" lon="10.8374486"><ele>594.6666666666666</ele><time>2026-03-22T10:38:37.283Z</time></trkpt><trkpt lat="44.4078903" lon="10.8372234"><ele>595.3333333333333</ele><time>2026-03-22T10:38:38.282Z</time></trkpt><trkpt lat="44.4079199" lon="10.8369737"><ele>596.0</ele><time>2026-03-22T10:38:39.286Z</time></trkpt><trkpt lat="44.4079537" lon="10.8366971"><ele>602.5</ele><time>2026-03-22T10:38:40.283Z</time></trkpt><trkpt lat="44.4080016" lon="10.836396"><ele>609.0</ele><time>2026-03-22T10:38:41.292Z</time></trkpt><trkpt lat="44.4080656" lon="10.8360769"><ele>611.5</ele><time>2026-03-22T10:38:42.287Z</time></trkpt><trkpt lat="44.4081289" lon="10.8357449"><ele>614.0</ele><time>2026-03-22T10:38:43.285Z</time></trkpt><trkpt lat="44.4081769" lon="10.8354028"><ele>613.0</ele><time>2026-03-22T10:38:44.272Z</time></trkpt><trkpt lat="44.4082022" lon="10.8350469"><ele>612.0</ele><time>2026-03-22T10:38:45.291Z</time></trkpt><trkpt lat="44.4082036" lon="10.8346801"><ele>612.0</ele><time>2026-03-22T10:38:46.282Z</time></trkpt><trkpt lat="44.4081855" lon="10.8343077"><ele>612.0</ele><time>2026-03-22T10:38:47.278Z</time></trkpt><trkpt lat="44.4081502" lon="10.8339347"><ele>613.5</ele><time>2026-03-22T10:38:48.27Z</time></trkpt><trkpt lat="44.4080955" lon="10.8335672"><ele>615.0</ele><time>2026-03-22T10:38:49.288Z</time></trkpt><trkpt lat="44.4080187" lon="10.8332096"><ele>616.0</ele><time>2026-03-22T10:38:50.282Z</time></trkpt><trkpt lat="44.407918" lon="10.8328657"><ele>617.0</ele><time>2026-03-22T10:38:51.276Z</time></trkpt><trkpt lat="44.4077973" lon="10.8325355"><ele>617.0</ele><time>2026-03-22T10:38:52.291Z</time></trkpt><trkpt lat="44.4076657" lon="10.8322198"><ele>617.0</ele><time>2026-03-22T10:38:53.286Z</time></trkpt><trkpt lat="44.4075273" lon="10.8319163"><ele>625.5</ele><time>2026-03-22T10:38:54.269Z</time></trkpt><trkpt lat="44.4073858" lon="10.8316235"><ele>634.0</ele><time>2026-03-22T10:38:55.289Z</time></trkpt><trkpt lat="44.407246" lon="10.8313363"><ele>628.0</ele><time>2026-03-22T10:38:56.272Z</time></trkpt><trkpt lat="44.4071094" lon="10.8310527"><ele>622.0</ele><time>2026-03-22T10:38:57.272Z</time></trkpt><trkpt lat="44.406981" lon="10.8307695"><ele>622.0</ele><time>2026-03-22T10:38:58.282Z</time></trkpt><trkpt lat="44.4068656" lon="10.8304843"><ele>622.0</ele><time>2026-03-22T10:38:59.288Z</time></trkpt><trkpt lat="44.4067646" lon="10.830194"><ele>625.3333333333334</ele><time>2026-03-22T10:39:00.278Z</time></trkpt><trkpt lat="44.4066752" lon="10.8299041"><ele>628.6666666666666</ele><time>2026-03-22T10:39:01.29Z</time></trkpt><trkpt lat="44.4065955" lon="10.8296241"><ele>632.0</ele><time>2026-03-22T10:39:02.282Z</time></trkpt><trkpt lat="44.4065218" lon="10.8293536"><ele>633.6666666666666</ele><time>2026-03-22T10:39:03.274Z</time></trkpt><trkpt lat="44.4064507" lon="10.8290915"><ele>635.3333333333334</ele><time>2026-03-22T10:39:04.289Z</time></trkpt><trkpt lat="44.4063823" lon="10.8288338"><ele>637.0</ele><time>2026-03-22T10:39:05.285Z</time></trkpt><trkpt lat="44.4063155" lon="10.8285796"><ele>628.0</ele><time>2026-03-22T10:39:06.292Z</time></trkpt><trkpt lat="44.4062488" lon="10.8283283"><ele>619.0</ele><time>2026-03-22T10:39:07.283Z</time></trkpt><trkpt lat="44.4061812" lon="10.8280753"><ele>610.0</ele><time>2026-03-22T10:39:08.275Z</time></trkpt><trkpt lat="44.4061134" lon="10.8278254"><ele>614.3333333333334</ele><time>2026-03-22T10:39:09.289Z</time></trkpt><trkpt lat="44.406047" lon="10.8275799"><ele>618.6666666666666</ele><time>2026-03-22T10:39:10.292Z</time></trkpt><trkpt lat="44.4059826" lon="10.8273362"><ele>623.0</ele><time>2026-03-22T10:39:11.275Z</time></trkpt><trkpt lat="44.4059236" lon="10.8270917"><ele>623.0</ele><time>2026-03-22T10:39:12.288Z</time></trkpt><trkpt lat="44.4058721" lon="10.8268459"><ele>623.0</ele><time>2026-03-22T10:39:13.284Z</time></trkpt><trkpt lat="44.4058304" lon="10.8265993"><ele>623.0</ele><time>2026-03-22T10:39:14.276Z</time></trkpt><trkpt lat="44.4057967" lon="10.8263532"><ele>626.3333333333333</ele><time>2026-03-22T10:39:15.28Z</time></trkpt><trkpt lat="44.4057662" lon="10.8261087"><ele>629.6666666666666</ele><time>2026-03-22T10:39:16.29Z</time></trkpt><trkpt lat="44.4057359" lon="10.8258683"><ele>633.0</ele><time>2026-03-22T10:39:17.28Z</time></trkpt><trkpt lat="44.4057039" lon="10.8256382"><ele>635.6666666666666</ele><time>2026-03-22T10:39:18.285Z</time></trkpt><trkpt lat="44.4056689" lon="10.8254195"><ele>638.3333333333333</ele><time>2026-03-22T10:39:19.29Z</time></trkpt><trkpt lat="44.4056304" lon="10.8252128"><ele>641.0</ele><time>2026-03-22T10:39:20.286Z</time></trkpt><trkpt lat="44.4055875" lon="10.8250133"><ele>642.6666666666666</ele><time>2026-03-22T10:39:21.283Z</time></trkpt><trkpt lat="44.4055355" lon="10.8248161"><ele>644.3333333333334</ele><time>2026-03-22T10:39:22.288Z</time></trkpt><trkpt lat="44.4054706" lon="10.8246203"><ele>646.0</ele><time>2026-03-22T10:39:23.294Z</time></trkpt><trkpt lat="44.4053951" lon="10.8244325"><ele>641.5</ele><time>2026-03-22T10:39:24.283Z</time></trkpt><trkpt lat="44.4053108" lon="10.8242599"><ele>637.0</ele><time>2026-03-22T10:39:25.277Z</time></trkpt><trkpt lat="44.4052184" lon="10.8241006"><ele>632.5</ele><time>2026-03-22T10:39:26.282Z</time></trkpt><trkpt lat="44.4051211" lon="10.8239632"><ele>628.0</ele><time>2026-03-22T10:39:27.263Z</time></trkpt><trkpt lat="44.4050044" lon="10.8238251"><ele>628.0</ele><time>2026-03-22T10:39:28.275Z</time></trkpt><trkpt lat="44.404878" lon="10.82369"><ele>628.0</ele><time>2026-03-22T10:39:29.282Z</time></trkpt><trkpt lat="44.4047477" lon="10.823568"><ele>628.0</ele><time>2026-03-22T10:39:30.276Z</time></trkpt><trkpt lat="44.404611" lon="10.8234607"><ele>623.0</ele><time>2026-03-22T10:39:31.269Z</time></trkpt><trkpt lat="44.4044641" lon="10.8233659"><ele>618.0</ele><time>2026-03-22T10:39:32.282Z</time></trkpt><trkpt lat="44.4043019" lon="10.823282"><ele>613.0</ele><time>2026-03-22T10:39:33.281Z</time></trkpt><trkpt lat="44.4041225" lon="10.8231977"><ele>613.0</ele><time>2026-03-22T10:39:34.277Z</time></trkpt><trkpt lat="44.403927" lon="10.8230987"><ele>613.0</ele><time>2026-03-22T10:39:35.279Z</time></trkpt><trkpt lat="44.4037192" lon="10.8229846"><ele>613.0</ele><time>2026-03-22T10:39:36.286Z</time></trkpt><trkpt lat="44.4035155" lon="10.8228674"><ele>613.6666666666667</ele><time>2026-03-22T10:39:37.274Z</time></trkpt><trkpt lat="44.4033206" lon="10.8227571"><ele>614.3333333333334</ele><time>2026-03-22T10:39:38.286Z</time></trkpt><trkpt lat="44.4031349" lon="10.8226559"><ele>615.0</ele><time>2026-03-22T10:39:39.283Z</time></trkpt><trkpt lat="44.4029527" lon="10.8225585"><ele>623.3333333333334</ele><time>2026-03-22T10:39:40.285Z</time></trkpt><trkpt lat="44.4027724" lon="10.822464"><ele>631.6666666666667</ele><time>2026-03-22T10:39:41.292Z</time></trkpt><trkpt lat="44.4025937" lon="10.8223691"><ele>640.0</ele><time>2026-03-22T10:39:42.267Z</time></trkpt><trkpt lat="44.4024146" lon="10.8222717"><ele>640.0</ele><time>2026-03-22T10:39:43.288Z</time></trkpt><trkpt lat="44.4022324" lon="10.8221716"><ele>640.0</ele><time>2026-03-22T10:39:44.288Z</time></trkpt><trkpt lat="44.40205" lon="10.8220706"><ele>640.0</ele><time>2026-03-22T10:39:45.28Z</time></trkpt><trkpt lat="44.401868" lon="10.8219733"><ele>640.6666666666667</ele><time>2026-03-22T10:39:46.285Z</time></trkpt><trkpt lat="44.4016826" lon="10.8218786"><ele>641.3333333333334</ele><time>2026-03-22T10:39:47.286Z</time></trkpt><trkpt lat="44.4014863" lon="10.8217813"><ele>642.0</ele><time>2026-03-22T10:39:48.267Z</time></trkpt><trkpt lat="44.401282" lon="10.8216715"><ele>644.6666666666666</ele><time>2026-03-22T10:39:49.289Z</time></trkpt><trkpt lat="44.401079" lon="10.8215565"><ele>647.3333333333333</ele><time>2026-03-22T10:39:50.282Z</time></trkpt><trkpt lat="44.4008833" lon="10.8214488"><ele>650.0</ele><time>2026-03-22T10:39:51.289Z</time></trkpt><trkpt lat="44.4006925" lon="10.8213517"><ele>650.0</ele><time>2026-03-22T10:39:52.275Z</time></trkpt><trkpt lat="44.4005013" lon="10.821272"><ele>650.0</ele><time>2026-03-22T10:39:53.278Z</time></trkpt><trkpt lat="44.4002976" lon="10.8212155"><ele>650.0</ele><time>2026-03-22T10:39:54.289Z</time></trkpt><trkpt lat="44.400075" lon="10.8211801"><ele>654.0</ele><time>2026-03-22T10:39:55.289Z</time></trkpt><trkpt lat="44.3998363" lon="10.8211564"><ele>658.0</ele><time>2026-03-22T10:39:56.285Z</time></trkpt><trkpt lat="44.3995936" lon="10.8211449"><ele>662.5</ele><time>2026-03-22T10:39:57.289Z</time></trkpt><trkpt lat="44.3993546" lon="10.821151"><ele>667.0</ele><time>2026-03-22T10:39:58.276Z</time></trkpt><trkpt lat="44.3991198" lon="10.8211772"><ele>667.0</ele><time>2026-03-22T10:39:59.286Z</time></trkpt><trkpt lat="44.3988954" lon="10.8212214"><ele>667.0</ele><time>2026-03-22T10:40:00.278Z</time></trkpt><trkpt lat="44.3986744" lon="10.8212753"><ele>670.5</ele><time>2026-03-22T10:40:01.277Z</time></trkpt><trkpt lat="44.3984532" lon="10.8213315"><ele>674.0</ele><time>2026-03-22T10:40:02.275Z</time></trkpt><trkpt lat="44.3982292" lon="10.8213819"><ele>674.0</ele><time>2026-03-22T10:40:03.28Z</time></trkpt><trkpt lat="44.398004" lon="10.8214213"><ele>674.0</ele><time>2026-03-22T10:40:04.272Z</time></trkpt><trkpt lat="44.397771" lon="10.8214486"><ele>676.5</ele><time>2026-03-22T10:40:05.289Z</time></trkpt><trkpt lat="44.3975332" lon="10.8214652"><ele>679.0</ele><time>2026-03-22T10:40:06.275Z</time></trkpt><trkpt lat="44.3972808" lon="10.8214732"><ele>680.0</ele><time>2026-03-22T10:40:07.287Z</time></trkpt><trkpt lat="44.3970172" lon="10.8214724"><ele>681.0</ele><time>2026-03-22T10:40:08.281Z</time></trkpt><trkpt lat="44.3967408" lon="10.8214579"><ele>681.0</ele><time>2026-03-22T10:40:09.273Z</time></trkpt><trkpt lat="44.3964551" lon="10.821427"><ele>681.0</ele><time>2026-03-22T10:40:10.286Z</time></trkpt><trkpt lat="44.3961714" lon="10.8213775"><ele>684.0</ele><time>2026-03-22T10:40:11.275Z</time></trkpt><trkpt lat="44.3958877" lon="10.8213068"><ele>687.0</ele><time>2026-03-22T10:40:12.281Z</time></trkpt><trkpt lat="44.3956084" lon="10.8212169"><ele>689.0</ele><time>2026-03-22T10:40:13.283Z</time></trkpt><trkpt lat="44.3953286" lon="10.8211102"><ele>691.0</ele><time>2026-03-22T10:40:14.282Z</time></trkpt><trkpt lat="44.3950455" lon="10.820986"><ele>695.0</ele><time>2026-03-22T10:40:15.28Z</time></trkpt><trkpt lat="44.39476" lon="10.8208485"><ele>699.0</ele><time>2026-03-22T10:40:16.282Z</time></trkpt><trkpt lat="44.3944734" lon="10.8207036"><ele>699.0</ele><time>2026-03-22T10:40:17.273Z</time></trkpt><trkpt lat="44.394183" lon="10.8205526"><ele>699.0</ele><time>2026-03-22T10:40:18.285Z</time></trkpt><trkpt lat="44.3938943" lon="10.8203985"><ele>699.5</ele><time>2026-03-22T10:40:19.273Z</time></trkpt><trkpt lat="44.3936018" lon="10.8202406"><ele>700.0</ele><time>2026-03-22T10:40:20.28Z</time></trkpt><trkpt lat="44.3933105" lon="10.8200805"><ele>702.0</ele><time>2026-03-22T10:40:21.287Z</time></trkpt><trkpt lat="44.3930207" lon="10.8199223"><ele>704.0</ele><time>2026-03-22T10:40:22.282Z</time></trkpt><trkpt lat="44.3927314" lon="10.8197646"><ele>704.0</ele><time>2026-03-22T10:40:23.277Z</time></trkpt><trkpt lat="44.3924436" lon="10.8196086"><ele>704.0</ele><time>2026-03-22T10:40:24.278Z</time></trkpt><trkpt lat="44.3921573" lon="10.8194535"><ele>707.0</ele><time>2026-03-22T10:40:25.29Z</time></trkpt><trkpt lat="44.3918758" lon="10.8192995"><ele>710.0</ele><time>2026-03-22T10:40:26.274Z</time></trkpt><trkpt lat="44.3915913" lon="10.8191461"><ele>711.0</ele><time>2026-03-22T10:40:27.288Z</time></trkpt><trkpt lat="44.3913124" lon="10.8189941"><ele>712.0</ele><time>2026-03-22T10:40:28.291Z</time></trkpt><trkpt lat="44.3910369" lon="10.8188421"><ele>712.0</ele><time>2026-03-22T10:40:29.267Z</time></trkpt><trkpt lat="44.3907585" lon="10.8186887"><ele>712.0</ele><time>2026-03-22T10:40:30.291Z</time></trkpt><trkpt lat="44.3904908" lon="10.81854"><ele>715.0</ele><time>2026-03-22T10:40:31.27Z</time></trkpt><trkpt lat="44.3902211" lon="10.8183919"><ele>718.0</ele><time>2026-03-22T10:40:32.281Z</time></trkpt><trkpt lat="44.3899568" lon="10.8182472"><ele>718.0</ele><time>2026-03-22T10:40:33.286Z</time></trkpt><trkpt lat="44.3896978" lon="10.8181053"><ele>718.0</ele><time>2026-03-22T10:40:34.285Z</time></trkpt><trkpt lat="44.3894421" lon="10.8179716"><ele>719.5</ele><time>2026-03-22T10:40:35.27Z</time></trkpt><trkpt lat="44.3891808" lon="10.8178606"><ele>721.0</ele><time>2026-03-22T10:40:36.282Z</time></trkpt><trkpt lat="44.3889149" lon="10.8177885"><ele>721.5</ele><time>2026-03-22T10:40:37.286Z</time></trkpt><trkpt lat="44.3886454" lon="10.8177524"><ele>722.0</ele><time>2026-03-22T10:40:38.271Z</time></trkpt><trkpt lat="44.3883682" lon="10.8177633"><ele>722.0</ele><time>2026-03-22T10:40:39.283Z</time></trkpt><trkpt lat="44.3880974" lon="10.8178118"><ele>722.0</ele><time>2026-03-22T10:40:40.265Z</time></trkpt><trkpt lat="44.3878265" lon="10.817892"><ele>727.5</ele><time>2026-03-22T10:40:41.276Z</time></trkpt><trkpt lat="44.3875611" lon="10.8180021"><ele>733.0</ele><time>2026-03-22T10:40:42.274Z</time></trkpt><trkpt lat="44.3872979" lon="10.8181198"><ele>738.0</ele><time>2026-03-22T10:40:43.267Z</time></trkpt><trkpt lat="44.3870339" lon="10.8182366"><ele>743.0</ele><time>2026-03-22T10:40:44.272Z</time></trkpt><trkpt lat="44.3867717" lon="10.8183483"><ele>743.0</ele><time>2026-03-22T10:40:45.286Z</time></trkpt><trkpt lat="44.3865173" lon="10.8184551"><ele>743.0</ele><time>2026-03-22T10:40:46.282Z</time></trkpt><trkpt lat="44.386269" lon="10.8185588"><ele>745.0</ele><time>2026-03-22T10:40:47.276Z</time></trkpt><trkpt lat="44.386025" lon="10.818659"><ele>747.0</ele><time>2026-03-22T10:40:48.289Z</time></trkpt><trkpt lat="44.38579" lon="10.8187546"><ele>747.0</ele><time>2026-03-22T10:40:49.283Z</time></trkpt><trkpt lat="44.3855627" lon="10.8188451"><ele>747.0</ele><time>2026-03-22T10:40:50.285Z</time></trkpt><trkpt lat="44.385349" lon="10.8189269"><ele>748.0</ele><time>2026-03-22T10:40:51.281Z</time></trkpt><trkpt lat="44.3851474" lon="10.8190024"><ele>749.0</ele><time>2026-03-22T10:40:52.27Z</time></trkpt><trkpt lat="44.3849494" lon="10.8190768"><ele>750.0</ele><time>2026-03-22T10:40:53.281Z</time></trkpt><trkpt lat="44.3847562" lon="10.8191489"><ele>750.0</ele><time>2026-03-22T10:40:54.287Z</time></trkpt><trkpt lat="44.384567" lon="10.8192206"><ele>750.0</ele><time>2026-03-22T10:40:55.274Z</time></trkpt><trkpt lat="44.3843768" lon="10.8193006"><ele>750.0</ele><time>2026-03-22T10:40:56.287Z</time></trkpt><trkpt lat="44.3841906" lon="10.8193904"><ele>749.6666666666666</ele><time>2026-03-22T10:40:57.267Z</time></trkpt><trkpt lat="44.3840034" lon="10.8194921"><ele>749.3333333333333</ele><time>2026-03-22T10:40:58.285Z</time></trkpt><trkpt lat="44.3838182" lon="10.8195991"><ele>749.0</ele><time>2026-03-22T10:40:59.289Z</time></trkpt><trkpt lat="44.3836324" lon="10.8197061"><ele>748.3333333333333</ele><time>2026-03-22T10:41:00.279Z</time></trkpt><trkpt lat="44.3834423" lon="10.8198107"><ele>747.6666666666666</ele><time>2026-03-22T10:41:01.291Z</time></trkpt><trkpt lat="44.383255" lon="10.8199107"><ele>747.0</ele><time>2026-03-22T10:41:02.286Z</time></trkpt><trkpt lat="44.3830743" lon="10.820006"><ele>745.6666666666666</ele><time>2026-03-22T10:41:03.281Z</time></trkpt><trkpt lat="44.3829018" lon="10.8201"><ele>744.3333333333333</ele><time>2026-03-22T10:41:04.293Z</time></trkpt><trkpt lat="44.3827348" lon="10.8201936"><ele>743.0</ele><time>2026-03-22T10:41:05.282Z</time></trkpt><trkpt lat="44.382566" lon="10.8202867"><ele>743.0</ele><time>2026-03-22T10:41:06.289Z</time></trkpt><trkpt lat="44.3823993" lon="10.8203778"><ele>743.0</ele><time>2026-03-22T10:41:07.274Z</time></trkpt><trkpt lat="44.3822323" lon="10.8204677"><ele>743.0</ele><time>2026-03-22T10:41:08.28Z</time></trkpt><trkpt lat="44.3820673" lon="10.8205538"><ele>744.6666666666666</ele><time>2026-03-22T10:41:09.281Z</time></trkpt><trkpt lat="44.3819055" lon="10.8206395"><ele>746.3333333333334</ele><time>2026-03-22T10:41:10.281Z</time></trkpt><trkpt lat="44.381745" lon="10.8207259"><ele>748.0</ele><time>2026-03-22T10:41:11.293Z</time></trkpt><trkpt lat="44.3815867" lon="10.8208131"><ele>748.0</ele><time>2026-03-22T10:41:12.287Z</time></trkpt><trkpt lat="44.3814288" lon="10.820904"><ele>748.0</ele><time>2026-03-22T10:41:13.288Z</time></trkpt><trkpt lat="44.3812784" lon="10.8210002"><ele>748.0</ele><time>2026-03-22T10:41:14.269Z</time></trkpt><trkpt lat="44.3811372" lon="10.821106"><ele>747.75</ele><time>2026-03-22T10:41:15.279Z</time></trkpt><trkpt lat="44.3810086" lon="10.8212165"><ele>747.5</ele><time>2026-03-22T10:41:16.277Z</time></trkpt><trkpt lat="44.3808883" lon="10.8213305"><ele>747.25</ele><time>2026-03-22T10:41:17.288Z</time></trkpt><trkpt lat="44.3807758" lon="10.821443"><ele>747.0</ele><time>2026-03-22T10:41:18.28Z</time></trkpt><trkpt lat="44.3806661" lon="10.8215546"><ele>747.0</ele><time>2026-03-22T10:41:19.284Z</time></trkpt><trkpt lat="44.3805575" lon="10.8216675"><ele>747.0</ele><time>2026-03-22T10:41:20.269Z</time></trkpt><trkpt lat="44.3804443" lon="10.8217885"><ele>747.0</ele><time>2026-03-22T10:41:21.28Z</time></trkpt><trkpt lat="44.3803272" lon="10.8219137"><ele>747.0</ele><time>2026-03-22T10:41:22.285Z</time></trkpt><trkpt lat="44.380206" lon="10.8220399"><ele>747.3333333333334</ele><time>2026-03-22T10:41:23.277Z</time></trkpt><trkpt lat="44.380083" lon="10.8221687"><ele>747.6666666666667</ele><time>2026-03-22T10:41:24.279Z</time></trkpt><trkpt lat="44.3799606" lon="10.8222973"><ele>748.0</ele><time>2026-03-22T10:41:25.275Z</time></trkpt><trkpt lat="44.3798376" lon="10.8224252"><ele>748.0</ele><time>2026-03-22T10:41:26.274Z</time></trkpt><trkpt lat="44.3797155" lon="10.8225473"><ele>748.0</ele><time>2026-03-22T10:41:27.284Z</time></trkpt><trkpt lat="44.379594" lon="10.8226655"><ele>748.0</ele><time>2026-03-22T10:41:28.275Z</time></trkpt><trkpt lat="44.3794711" lon="10.8227864"><ele>748.0</ele><time>2026-03-22T10:41:29.281Z</time></trkpt><trkpt lat="44.3793485" lon="10.8229087"><ele>746.0</ele><time>2026-03-22T10:41:30.281Z</time></trkpt><trkpt lat="44.3792265" lon="10.8230319"><ele>744.0</ele><time>2026-03-22T10:41:31.271Z</time></trkpt><trkpt lat="44.379104" lon="10.8231566"><ele>742.0</ele><time>2026-03-22T10:41:32.271Z</time></trkpt><trkpt lat="44.3789809" lon="10.823278"><ele>742.0</ele><time>2026-03-22T10:41:33.282Z</time></trkpt><trkpt lat="44.378858" lon="10.823397"><ele>742.0</ele><time>2026-03-22T10:41:34.283Z</time></trkpt><trkpt lat="44.3787351" lon="10.8235146"><ele>742.0</ele><time>2026-03-22T10:41:35.277Z</time></trkpt><trkpt lat="44.3786123" lon="10.8236349"><ele>742.0</ele><time>2026-03-22T10:41:36.275Z</time></trkpt><trkpt lat="44.3784899" lon="10.8237574"><ele>739.0</ele><time>2026-03-22T10:41:37.269Z</time></trkpt><trkpt lat="44.3783674" lon="10.8238815"><ele>736.0</ele><time>2026-03-22T10:41:38.273Z</time></trkpt><trkpt lat="44.3782453" lon="10.8240074"><ele>733.0</ele><time>2026-03-22T10:41:39.282Z</time></trkpt><trkpt lat="44.3781221" lon="10.824131"><ele>731.6666666666667</ele><time>2026-03-22T10:41:40.283Z</time></trkpt><trkpt lat="44.3779985" lon="10.8242524"><ele>730.3333333333334</ele><time>2026-03-22T10:41:41.28Z</time></trkpt><trkpt lat="44.3778759" lon="10.8243751"><ele>729.0</ele><time>2026-03-22T10:41:42.289Z</time></trkpt><trkpt lat="44.3777559" lon="10.824496"><ele>728.5</ele><time>2026-03-22T10:41:43.281Z</time></trkpt><trkpt lat="44.3776376" lon="10.8246174"><ele>728.0</ele><time>2026-03-22T10:41:44.269Z</time></trkpt><trkpt lat="44.3775205" lon="10.824746"><ele>727.5</ele><time>2026-03-22T10:41:45.275Z</time></trkpt><trkpt lat="44.3774036" lon="10.8248852"><ele>727.0</ele><time>2026-03-22T10:41:46.284Z</time></trkpt><trkpt lat="44.3772895" lon="10.8250306"><ele>727.0</ele><time>2026-03-22T10:41:47.286Z</time></trkpt><trkpt lat="44.3771815" lon="10.8251757"><ele>727.0</ele><time>2026-03-22T10:41:48.28Z</time></trkpt><trkpt lat="44.3770755" lon="10.8253203"><ele>727.0</ele><time>2026-03-22T10:41:49.281Z</time></trkpt><trkpt lat="44.3769693" lon="10.8254649"><ele>727.0</ele><time>2026-03-22T10:41:50.273Z</time></trkpt><trkpt lat="44.3768617" lon="10.8256082"><ele>727.0</ele><time>2026-03-22T10:41:51.291Z</time></trkpt><trkpt lat="44.3767569" lon="10.8257479"><ele>727.0</ele><time>2026-03-22T10:41:52.287Z</time></trkpt><trkpt lat="44.3766539" lon="10.8258853"><ele>727.0</ele><time>2026-03-22T10:41:53.264Z</time></trkpt><trkpt lat="44.3765516" lon="10.8260225"><ele>727.0</ele><time>2026-03-22T10:41:54.267Z</time></trkpt><trkpt lat="44.3764522" lon="10.8261581"><ele>726.5</ele><time>2026-03-22T10:41:55.289Z</time></trkpt><trkpt lat="44.3763572" lon="10.8262898"><ele>726.0</ele><time>2026-03-22T10:41:56.275Z</time></trkpt><trkpt lat="44.3762608" lon="10.8264196"><ele>725.5</ele><time>2026-03-22T10:41:57.29Z</time></trkpt><trkpt lat="44.3761661" lon="10.8265478"><ele>725.0</ele><time>2026-03-22T10:41:58.29Z</time></trkpt><trkpt lat="44.3760736" lon="10.8266811"><ele>723.5</ele><time>2026-03-22T10:41:59.29Z</time></trkpt><trkpt lat="44.3759843" lon="10.8268203"><ele>722.0</ele><time>2026-03-22T10:42:00.285Z</time></trkpt><trkpt lat="44.3758989" lon="10.8269662"><ele>720.5</ele><time>2026-03-22T10:42:01.289Z</time></trkpt><trkpt lat="44.3758199" lon="10.827119"><ele>719.0</ele><time>2026-03-22T10:42:02.287Z</time></trkpt><trkpt lat="44.3757485" lon="10.8272801"><ele>719.0</ele><time>2026-03-22T10:42:03.273Z</time></trkpt><trkpt lat="44.3756812" lon="10.8274449"><ele>719.0</ele><time>2026-03-22T10:42:04.275Z</time></trkpt><trkpt lat="44.3756162" lon="10.8276073"><ele>719.0</ele><time>2026-03-22T10:42:05.291Z</time></trkpt><trkpt lat="44.3755544" lon="10.8277663"><ele>719.0</ele><time>2026-03-22T10:42:06.288Z</time></trkpt><trkpt lat="44.3754941" lon="10.8279227"><ele>718.5</ele><time>2026-03-22T10:42:07.284Z</time></trkpt><trkpt lat="44.3754327" lon="10.8280749"><ele>718.0</ele><time>2026-03-22T10:42:08.289Z</time></trkpt><trkpt lat="44.3753714" lon="10.8282184"><ele>717.5</ele><time>2026-03-22T10:42:09.269Z</time></trkpt><trkpt lat="44.3753109" lon="10.8283537"><ele>717.0</ele><time>2026-03-22T10:42:10.278Z</time></trkpt><trkpt lat="44.3752517" lon="10.8284759"><ele>716.3333333333334</ele><time>2026-03-22T10:42:11.282Z</time></trkpt><trkpt lat="44.3751877" lon="10.8285814"><ele>715.6666666666666</ele><time>2026-03-22T10:42:12.287Z</time></trkpt><trkpt lat="44.375114" lon="10.8286619"><ele>715.0</ele><time>2026-03-22T10:42:13.279Z</time></trkpt><trkpt lat="44.375038" lon="10.8287267"><ele>714.3333333333333</ele><time>2026-03-22T10:42:14.291Z</time></trkpt><trkpt lat="44.374977" lon="10.8287997"><ele>713.6666666666666</ele><time>2026-03-22T10:42:15.276Z</time></trkpt><trkpt lat="44.3749415" lon="10.8288961"><ele>713.0</ele><time>2026-03-22T10:42:16.284Z</time></trkpt><trkpt lat="44.3749303" lon="10.8290059"><ele>713.0</ele><time>2026-03-22T10:42:17.286Z</time></trkpt><trkpt lat="44.37494" lon="10.8291233"><ele>713.0</ele><time>2026-03-22T10:42:18.266Z</time></trkpt><trkpt lat="44.3749398" lon="10.8292496"><ele>713.0</ele><time>2026-03-22T10:42:19.29Z</time></trkpt><trkpt lat="44.374911" lon="10.8293766"><ele>713.0</ele><time>2026-03-22T10:42:20.292Z</time></trkpt><trkpt lat="44.3748639" lon="10.8295072"><ele>713.0</ele><time>2026-03-22T10:42:21.278Z</time></trkpt><trkpt lat="44.3748088" lon="10.8296479"><ele>712.5</ele><time>2026-03-22T10:42:22.288Z</time></trkpt><trkpt lat="44.3747513" lon="10.8297987"><ele>712.0</ele><time>2026-03-22T10:42:23.289Z</time></trkpt><trkpt lat="44.3746916" lon="10.8299571"><ele>711.5</ele><time>2026-03-22T10:42:24.28Z</time></trkpt><trkpt lat="44.3746304" lon="10.8301191"><ele>711.0</ele><time>2026-03-22T10:42:25.29Z</time></trkpt><trkpt lat="44.3745721" lon="10.8302755"><ele>711.0</ele><time>2026-03-22T10:42:26.287Z</time></trkpt><trkpt lat="44.3745131" lon="10.8304334"><ele>711.0</ele><time>2026-03-22T10:42:27.295Z</time></trkpt><trkpt lat="44.3744487" lon="10.8305945"><ele>711.0</ele><time>2026-03-22T10:42:28.275Z</time></trkpt><trkpt lat="44.3743834" lon="10.8307549"><ele>711.0</ele><time>2026-03-22T10:42:29.283Z</time></trkpt><trkpt lat="44.3743159" lon="10.8309121"><ele>710.25</ele><time>2026-03-22T10:42:30.275Z</time></trkpt><trkpt lat="44.3742457" lon="10.8310669"><ele>709.5</ele><time>2026-03-22T10:42:31.272Z</time></trkpt><trkpt lat="44.3741739" lon="10.8312186"><ele>708.75</ele><time>2026-03-22T10:42:32.291Z</time></trkpt><trkpt lat="44.3741031" lon="10.8313646"><ele>708.0</ele><time>2026-03-22T10:42:33.27Z</time></trkpt><trkpt lat="44.374031" lon="10.8315101"><ele>708.0</ele><time>2026-03-22T10:42:34.274Z</time></trkpt><trkpt lat="44.3739606" lon="10.8316556"><ele>708.0</ele><time>2026-03-22T10:42:35.283Z</time></trkpt><trkpt lat="44.3738926" lon="10.8318006"><ele>708.0</ele><time>2026-03-22T10:42:36.275Z</time></trkpt><trkpt lat="44.3738243" lon="10.8319466"><ele>708.0</ele><time>2026-03-22T10:42:37.274Z</time></trkpt><trkpt lat="44.3737551" lon="10.8320942"><ele>707.75</ele><time>2026-03-22T10:42:38.288Z</time></trkpt><trkpt lat="44.3736839" lon="10.8322406"><ele>707.5</ele><time>2026-03-22T10:42:39.284Z</time></trkpt><trkpt lat="44.3736088" lon="10.832387"><ele>707.25</ele><time>2026-03-22T10:42:40.278Z</time></trkpt><trkpt lat="44.37353" lon="10.8325351"><ele>707.0</ele><time>2026-03-22T10:42:41.286Z</time></trkpt><trkpt lat="44.373447" lon="10.8326836"><ele>707.5</ele><time>2026-03-22T10:42:42.291Z</time></trkpt><trkpt lat="44.3733588" lon="10.8328294"><ele>708.0</ele><time>2026-03-22T10:42:43.287Z</time></trkpt><trkpt lat="44.373265" lon="10.8329726"><ele>708.5</ele><time>2026-03-22T10:42:44.292Z</time></trkpt><trkpt lat="44.3731683" lon="10.83311"><ele>709.0</ele><time>2026-03-22T10:42:45.284Z</time></trkpt><trkpt lat="44.3730683" lon="10.8332426"><ele>708.5</ele><time>2026-03-22T10:42:46.266Z</time></trkpt><trkpt lat="44.3729637" lon="10.8333718"><ele>708.0</ele><time>2026-03-22T10:42:47.272Z</time></trkpt><trkpt lat="44.3728556" lon="10.8334938"><ele>707.5</ele><time>2026-03-22T10:42:48.28Z</time></trkpt><trkpt lat="44.3727454" lon="10.8336067"><ele>707.0</ele><time>2026-03-22T10:42:49.292Z</time></trkpt><trkpt lat="44.3726358" lon="10.8337088"><ele>707.0</ele><time>2026-03-22T10:42:50.281Z</time></trkpt><trkpt lat="44.3725262" lon="10.8337984"><ele>707.0</ele><time>2026-03-22T10:42:51.29Z</time></trkpt><trkpt lat="44.3724217" lon="10.8338747"><ele>707.0</ele><time>2026-03-22T10:42:52.278Z</time></trkpt><trkpt lat="44.3723219" lon="10.8339425"><ele>707.0</ele><time>2026-03-22T10:42:53.277Z</time></trkpt><trkpt lat="44.3722313" lon="10.8339988"><ele>707.0</ele><time>2026-03-22T10:42:54.295Z</time></trkpt><trkpt lat="44.3721591" lon="10.8340345"><ele>702.0</ele><time>2026-03-22T10:42:55.267Z</time></trkpt><trkpt lat="44.3720834" lon="10.8340675"><ele>702.0</ele><time>2026-03-22T10:42:57.264Z</time></trkpt></trkseg></trk></gpx>